<?xml version="1.0"?>
<gpx xmlns="http://www.topografix.com/GPX/1/1" xmlns:xsi="http://www.w3.org/2001/XMLSchema-instance" xmlns:wptx1="http://www.garmin.com/xmlschemas/WaypointExtension/v1" xmlns:gpxtrx="http://www.garmin.com/xmlschemas/GpxExtensions/v3" xmlns:gpxtpx="http://www.garmin.com/xmlschemas/TrackPointExtension/v1" xmlns:gpxx="http://www.garmin.com/xmlschemas/GpxExtensions/v3" xmlns:trp="http://www.garmin.com/xmlschemas/TripExtensions/v1" xmlns:adv="http://www.garmin.com/xmlschemas/AdventuresExtensions/v1" xmlns:prs="http://www.garmin.com/xmlschemas/PressureExtension/v1" xmlns:tmd="http://www.garmin.com/xmlschemas/TripMetaDataExtensions/v1" xmlns:vptm="http://www.garmin.com/xmlschemas/ViaPointTransportationModeExtensions/v1" xmlns:ctx="http://www.garmin.com/xmlschemas/CreationTimeExtension/v1" xmlns:gpxacc="http://www.garmin.com/xmlschemas/AccelerationExtension/v1" xmlns:gpxpx="http://www.garmin.com/xmlschemas/PowerExtension/v1" xmlns:vidx1="http://www.garmin.com/xmlschemas/VideoExtension/v1" creator="Garmin Desktop App" version="1.1" xsi:schemaLocation="http://www.topografix.com/GPX/1/1 http://www.topografix.com/GPX/1/1/gpx.xsd http://www.garmin.com/xmlschemas/WaypointExtension/v1 http://www8.garmin.com/xmlschemas/WaypointExtensionv1.xsd http://www.garmin.com/xmlschemas/TrackPointExtension/v1 http://www.garmin.com/xmlschemas/TrackPointExtensionv1.xsd http://www.garmin.com/xmlschemas/GpxExtensions/v3 http://www8.garmin.com/xmlschemas/GpxExtensionsv3.xsd http://www.garmin.com/xmlschemas/ActivityExtension/v1 http://www8.garmin.com/xmlschemas/ActivityExtensionv1.xsd http://www.garmin.com/xmlschemas/AdventuresExtensions/v1 http://www8.garmin.com/xmlschemas/AdventuresExtensionv1.xsd http://www.garmin.com/xmlschemas/PressureExtension/v1 http://www.garmin.com/xmlschemas/PressureExtensionv1.xsd http://www.garmin.com/xmlschemas/TripExtensions/v1 http://www.garmin.com/xmlschemas/TripExtensionsv1.xsd http://www.garmin.com/xmlschemas/TripMetaDataExtensions/v1 http://www.garmin.com/xmlschemas/TripMetaDataExtensionsv1.xsd http://www.garmin.com/xmlschemas/ViaPointTransportationModeExtensions/v1 http://www.garmin.com/xmlschemas/ViaPointTransportationModeExtensionsv1.xsd http://www.garmin.com/xmlschemas/CreationTimeExtension/v1 http://www.garmin.com/xmlschemas/CreationTimeExtensionsv1.xsd http://www.garmin.com/xmlschemas/AccelerationExtension/v1 http://www.garmin.com/xmlschemas/AccelerationExtensionv1.xsd http://www.garmin.com/xmlschemas/PowerExtension/v1 http://www.garmin.com/xmlschemas/PowerExtensionv1.xsd http://www.garmin.com/xmlschemas/VideoExtension/v1 http://www.garmin.com/xmlschemas/VideoExtensionv1.xsd">

  <metadata>
    <link href="http://www.garmin.com">
      <text>Garmin International</text>
    </link>
    <time>2015-02-15T15:38:41Z</time>
    <bounds maxlat="47.701360825449228" maxlon="12.057189345359802" minlat="47.685603518038988" minlon="12.035438474267721"/>
  </metadata>

  <trk>
    <name>Wildalpjoch 2015.02.15</name>
    <extensions>
      <gpxx:TrackExtension>
        <gpxx:DisplayColor>Cyan</gpxx:DisplayColor>
      </gpxx:TrackExtension>
      <gpxtrkx:TrackStatsExtension xmlns:gpxtrkx="http://www.garmin.com/xmlschemas/TrackStatsExtension/v1">
        <gpxtrkx:Distance>7329</gpxtrkx:Distance>
        <gpxtrkx:TotalElapsedTime>25705</gpxtrkx:TotalElapsedTime>
        <gpxtrkx:MovingTime>7854</gpxtrkx:MovingTime>
        <gpxtrkx:StoppedTime>5140</gpxtrkx:StoppedTime>
        <gpxtrkx:MovingSpeed>1</gpxtrkx:MovingSpeed>
        <gpxtrkx:MaxSpeed>6</gpxtrkx:MaxSpeed>
        <gpxtrkx:MaxElevation>1721</gpxtrkx:MaxElevation>
        <gpxtrkx:MinElevation>500</gpxtrkx:MinElevation>
        <gpxtrkx:Ascent>758</gpxtrkx:Ascent>
        <gpxtrkx:Descent>754</gpxtrkx:Descent>
        <gpxtrkx:AvgAscentRate>0</gpxtrkx:AvgAscentRate>
        <gpxtrkx:MaxAscentRate>0</gpxtrkx:MaxAscentRate>
        <gpxtrkx:AvgDescentRate>0</gpxtrkx:AvgDescentRate>
        <gpxtrkx:MaxDescentRate>-2</gpxtrkx:MaxDescentRate>
      </gpxtrkx:TrackStatsExtension>
    </extensions>
    <trkseg>
      <trkpt lat="47.685622628778219" lon="12.057083314284682">
        <ele>991.789999999999964</ele>
        <time>2015-02-15T08:01:47Z</time>
      </trkpt>
      <trkpt lat="47.685621539130807" lon="12.057084236294031">
        <ele>991.789999999999964</ele>
        <time>2015-02-15T08:01:48Z</time>
      </trkpt>
      <trkpt lat="47.685620952397585" lon="12.057088930159807">
        <ele>994.940000000000055</ele>
        <time>2015-02-15T08:01:51Z</time>
      </trkpt>
      <trkpt lat="47.685620784759521" lon="12.057089265435934">
        <ele>995.899999999999977</ele>
        <time>2015-02-15T08:01:53Z</time>
      </trkpt>
      <trkpt lat="47.685620114207268" lon="12.057083817198873">
        <ele>995.740000000000009</ele>
        <time>2015-02-15T08:02:20Z</time>
      </trkpt>
      <trkpt lat="47.685608463361859" lon="12.057042913511395">
        <ele>995.029999999999973</ele>
        <time>2015-02-15T08:02:53Z</time>
      </trkpt>
      <trkpt lat="47.685612067580223" lon="12.057044170796871">
        <ele>995.409999999999968</ele>
        <time>2015-02-15T08:03:17Z</time>
      </trkpt>
      <trkpt lat="47.685604691505432" lon="12.057072166353464">
        <ele>995.850000000000023</ele>
        <time>2015-02-15T08:03:35Z</time>
      </trkpt>
      <trkpt lat="47.685603518038988" lon="12.057091109454632">
        <ele>995.909999999999968</ele>
        <time>2015-02-15T08:03:54Z</time>
      </trkpt>
      <trkpt lat="47.685646684840322" lon="12.057138802483678">
        <ele>996.049999999999955</ele>
        <time>2015-02-15T08:04:06Z</time>
      </trkpt>
      <trkpt lat="47.685670321807265" lon="12.057133857160807">
        <ele>996.080000000000041</ele>
        <time>2015-02-15T08:04:08Z</time>
      </trkpt>
      <trkpt lat="47.685883557423949" lon="12.057040063664317">
        <ele>996.860000000000014</ele>
        <time>2015-02-15T08:04:26Z</time>
      </trkpt>
      <trkpt lat="47.686145408079028" lon="12.056829510256648">
        <ele>997.419999999999959</ele>
        <time>2015-02-15T08:04:49Z</time>
      </trkpt>
      <trkpt lat="47.686199219897389" lon="12.056765137240291">
        <ele>998.269999999999982</ele>
        <time>2015-02-15T08:04:56Z</time>
      </trkpt>
      <trkpt lat="47.686232831329107" lon="12.056736387312412">
        <ele>998.42999999999995</ele>
        <time>2015-02-15T08:05:00Z</time>
      </trkpt>
      <trkpt lat="47.686287648975849" lon="12.056654077023268">
        <ele>998.409999999999968</ele>
        <time>2015-02-15T08:05:18Z</time>
      </trkpt>
      <trkpt lat="47.686309106647968" lon="12.056638821959496">
        <ele>998.559999999999945</ele>
        <time>2015-02-15T08:05:39Z</time>
      </trkpt>
      <trkpt lat="47.686389992013574" lon="12.056473111733794">
        <ele>998.57000000000005</ele>
        <time>2015-02-15T08:05:59Z</time>
      </trkpt>
      <trkpt lat="47.68642351962626" lon="12.056473363190889">
        <ele>998.330000000000041</ele>
        <time>2015-02-15T08:06:04Z</time>
      </trkpt>
      <trkpt lat="47.686456544324756" lon="12.05646556802094">
        <ele>998.490000000000009</ele>
        <time>2015-02-15T08:06:07Z</time>
      </trkpt>
      <trkpt lat="47.686554612591863" lon="12.0561499055475">
        <ele>999.590000000000032</ele>
        <time>2015-02-15T08:06:27Z</time>
      </trkpt>
      <trkpt lat="47.686569280922413" lon="12.055736593902111">
        <ele>999.259999999999991</ele>
        <time>2015-02-15T08:06:48Z</time>
      </trkpt>
      <trkpt lat="47.686508679762483" lon="12.055379441007972">
        <ele>999.67999999999995</ele>
        <time>2015-02-15T08:07:09Z</time>
      </trkpt>
      <trkpt lat="47.686522006988525" lon="12.055261675268412">
        <ele>1000.450000000000045</ele>
        <time>2015-02-15T08:07:22Z</time>
      </trkpt>
      <trkpt lat="47.686512535437942" lon="12.055268799886107">
        <ele>1000.17999999999995</ele>
        <time>2015-02-15T08:07:41Z</time>
      </trkpt>
      <trkpt lat="47.686504991725087" lon="12.055272152647376">
        <ele>1000.590000000000032</ele>
        <time>2015-02-15T08:08:00Z</time>
      </trkpt>
      <trkpt lat="47.686525275930762" lon="12.055240971967578">
        <ele>1001.289999999999964</ele>
        <time>2015-02-15T08:08:25Z</time>
      </trkpt>
      <trkpt lat="47.686706576496363" lon="12.055225884541869">
        <ele>1002.990000000000009</ele>
        <time>2015-02-15T08:08:44Z</time>
      </trkpt>
      <trkpt lat="47.68685988150537" lon="12.055177604779601">
        <ele>1004.450000000000045</ele>
        <time>2015-02-15T08:09:03Z</time>
      </trkpt>
      <trkpt lat="47.686922661960125" lon="12.055165115743876">
        <ele>1004.57000000000005</ele>
        <time>2015-02-15T08:09:23Z</time>
      </trkpt>
      <trkpt lat="47.686907490715384" lon="12.055190429091454">
        <ele>1004.659999999999968</ele>
        <time>2015-02-15T08:09:59Z</time>
      </trkpt>
      <trkpt lat="47.686926601454616" lon="12.055176179856062">
        <ele>1004.669999999999959</ele>
        <time>2015-02-15T08:10:01Z</time>
      </trkpt>
      <trkpt lat="47.686983430758119" lon="12.05513603053987">
        <ele>1004.490000000000009</ele>
        <time>2015-02-15T08:10:06Z</time>
      </trkpt>
      <trkpt lat="47.687234720215201" lon="12.054945593699813">
        <ele>1003.159999999999968</ele>
        <time>2015-02-15T08:10:27Z</time>
      </trkpt>
      <trkpt lat="47.687426162883639" lon="12.054798407480121">
        <ele>1003.350000000000023</ele>
        <time>2015-02-15T08:10:47Z</time>
      </trkpt>
      <trkpt lat="47.687608888372779" lon="12.054607551544905">
        <ele>1004.769999999999982</ele>
        <time>2015-02-15T08:11:07Z</time>
      </trkpt>
      <trkpt lat="47.687836037948728" lon="12.054490372538567">
        <ele>1006.970000000000027</ele>
        <time>2015-02-15T08:11:28Z</time>
      </trkpt>
      <trkpt lat="47.688041646033525" lon="12.054497413337231">
        <ele>1007.909999999999968</ele>
        <time>2015-02-15T08:11:48Z</time>
      </trkpt>
      <trkpt lat="47.688100067898631" lon="12.054493557661772">
        <ele>1007.480000000000018</ele>
        <time>2015-02-15T08:12:01Z</time>
      </trkpt>
      <trkpt lat="47.688134601339698" lon="12.054447121918201">
        <ele>1005.899999999999977</ele>
        <time>2015-02-15T08:12:04Z</time>
      </trkpt>
      <trkpt lat="47.688147509470582" lon="12.054425915703177">
        <ele>1005.590000000000032</ele>
        <time>2015-02-15T08:12:05Z</time>
      </trkpt>
      <trkpt lat="47.688163267448545" lon="12.054400434717536">
        <ele>1005.340000000000032</ele>
        <time>2015-02-15T08:12:06Z</time>
      </trkpt>
      <trkpt lat="47.688280614092946" lon="12.054195832461119">
        <ele>1004.600000000000023</ele>
        <time>2015-02-15T08:12:19Z</time>
      </trkpt>
      <trkpt lat="47.68832135014236" lon="12.054103799164295">
        <ele>1003.960000000000036</ele>
        <time>2015-02-15T08:12:26Z</time>
      </trkpt>
      <trkpt lat="47.688324451446533" lon="12.05403808504343">
        <ele>1004.889999999999986</ele>
        <time>2015-02-15T08:12:45Z</time>
      </trkpt>
      <trkpt lat="47.688324954360723" lon="12.053996259346604">
        <ele>1003.92999999999995</ele>
        <time>2015-02-15T08:13:11Z</time>
      </trkpt>
      <trkpt lat="47.68837608397007" lon="12.05394571647048">
        <ele>1004.75</ele>
        <time>2015-02-15T08:13:25Z</time>
      </trkpt>
      <trkpt lat="47.688382957130671" lon="12.053933227434754">
        <ele>1004.539999999999964</ele>
        <time>2015-02-15T08:13:26Z</time>
      </trkpt>
      <trkpt lat="47.688402570784092" lon="12.053889976814389">
        <ele>1004.769999999999982</ele>
        <time>2015-02-15T08:13:30Z</time>
      </trkpt>
      <trkpt lat="47.688459903001785" lon="12.053657798096538">
        <ele>1006.860000000000014</ele>
        <time>2015-02-15T08:13:48Z</time>
      </trkpt>
      <trkpt lat="47.688547829166055" lon="12.053478173911572">
        <ele>1008.529999999999973</ele>
        <time>2015-02-15T08:14:07Z</time>
      </trkpt>
      <trkpt lat="47.68866534344852" lon="12.053333921357989">
        <ele>1010.17999999999995</ele>
        <time>2015-02-15T08:14:26Z</time>
      </trkpt>
      <trkpt lat="47.688720244914293" lon="12.053280025720596">
        <ele>1011.440000000000055</ele>
        <time>2015-02-15T08:14:41Z</time>
      </trkpt>
      <trkpt lat="47.688754443079233" lon="12.053168378770351">
        <ele>1014.159999999999968</ele>
        <time>2015-02-15T08:14:57Z</time>
      </trkpt>
      <trkpt lat="47.688756203278899" lon="12.053159242495894">
        <ele>1014.419999999999959</ele>
        <time>2015-02-15T08:14:58Z</time>
      </trkpt>
      <trkpt lat="47.688834238797426" lon="12.052946593612432">
        <ele>1016.730000000000018</ele>
        <time>2015-02-15T08:15:17Z</time>
      </trkpt>
      <trkpt lat="47.688872711732984" lon="12.052735621109605">
        <ele>1019.82000000000005</ele>
        <time>2015-02-15T08:15:35Z</time>
      </trkpt>
      <trkpt lat="47.688965583220124" lon="12.052600923925638">
        <ele>1022.480000000000018</ele>
        <time>2015-02-15T08:15:55Z</time>
      </trkpt>
      <trkpt lat="47.689071781933308" lon="12.052520541474223">
        <ele>1023.899999999999977</ele>
        <time>2015-02-15T08:16:14Z</time>
      </trkpt>
      <trkpt lat="47.689156020060182" lon="12.052545016631484">
        <ele>1026.900000000000091</ele>
        <time>2015-02-15T08:16:31Z</time>
      </trkpt>
      <trkpt lat="47.689226008951664" lon="12.052537389099598">
        <ele>1028.160000000000082</ele>
        <time>2015-02-15T08:16:46Z</time>
      </trkpt>
      <trkpt lat="47.68930739723146" lon="12.052520038560033">
        <ele>1031.170000000000073</ele>
        <time>2015-02-15T08:17:00Z</time>
      </trkpt>
      <trkpt lat="47.689431365579367" lon="12.052505873143673">
        <ele>1034.049999999999955</ele>
        <time>2015-02-15T08:17:20Z</time>
      </trkpt>
      <trkpt lat="47.689547874033451" lon="12.052551889792085">
        <ele>1037.509999999999991</ele>
        <time>2015-02-15T08:17:39Z</time>
      </trkpt>
      <trkpt lat="47.689641583710909" lon="12.052565384656191">
        <ele>1039.440000000000055</ele>
        <time>2015-02-15T08:17:55Z</time>
      </trkpt>
      <trkpt lat="47.689761444926262" lon="12.052563624456525">
        <ele>1042.630000000000109</ele>
        <time>2015-02-15T08:18:14Z</time>
      </trkpt>
      <trkpt lat="47.689880300313234" lon="12.052544010803103">
        <ele>1045.319999999999936</ele>
        <time>2015-02-15T08:18:35Z</time>
      </trkpt>
      <trkpt lat="47.689908714964986" lon="12.052450468763709">
        <ele>1048.119999999999891</ele>
        <time>2015-02-15T08:18:52Z</time>
      </trkpt>
      <trkpt lat="47.689876025542617" lon="12.052295738831162">
        <ele>1050.509999999999991</ele>
        <time>2015-02-15T08:19:10Z</time>
      </trkpt>
      <trkpt lat="47.689851550385356" lon="12.052096333354712">
        <ele>1053.279999999999973</ele>
        <time>2015-02-15T08:19:30Z</time>
      </trkpt>
      <trkpt lat="47.68984685651958" lon="12.051945710554719">
        <ele>1056.539999999999964</ele>
        <time>2015-02-15T08:19:46Z</time>
      </trkpt>
      <trkpt lat="47.689875857904553" lon="12.051788717508316">
        <ele>1058.799999999999955</ele>
        <time>2015-02-15T08:20:04Z</time>
      </trkpt>
      <trkpt lat="47.689907709136605" lon="12.051635244861245">
        <ele>1061.8900000000001</ele>
        <time>2015-02-15T08:20:22Z</time>
      </trkpt>
      <trkpt lat="47.689959090203047" lon="12.051477581262589">
        <ele>1064.410000000000082</ele>
        <time>2015-02-15T08:20:40Z</time>
      </trkpt>
      <trkpt lat="47.690022373571992" lon="12.051334921270609">
        <ele>1067.410000000000082</ele>
        <time>2015-02-15T08:20:58Z</time>
      </trkpt>
      <trkpt lat="47.690089261159301" lon="12.051168708130717">
        <ele>1070.279999999999973</ele>
        <time>2015-02-15T08:21:17Z</time>
      </trkpt>
      <trkpt lat="47.69013075158" lon="12.050998052582145">
        <ele>1072.990000000000009</ele>
        <time>2015-02-15T08:21:36Z</time>
      </trkpt>
      <trkpt lat="47.690166290849447" lon="12.05081800930202">
        <ele>1076.470000000000027</ele>
        <time>2015-02-15T08:21:54Z</time>
      </trkpt>
      <trkpt lat="47.690230496227741" lon="12.050642995163798">
        <ele>1078.980000000000018</ele>
        <time>2015-02-15T08:22:14Z</time>
      </trkpt>
      <trkpt lat="47.69029201939702" lon="12.05050871707499">
        <ele>1081.339999999999918</ele>
        <time>2015-02-15T08:22:33Z</time>
      </trkpt>
      <trkpt lat="47.690311968326569" lon="12.0503010135144">
        <ele>1083.5</ele>
        <time>2015-02-15T08:22:50Z</time>
      </trkpt>
      <trkpt lat="47.69037164747715" lon="12.050155838951468">
        <ele>1086.6099999999999</ele>
        <time>2015-02-15T08:23:09Z</time>
      </trkpt>
      <trkpt lat="47.690494190901518" lon="12.050129268318415">
        <ele>1088.940000000000055</ele>
        <time>2015-02-15T08:23:27Z</time>
      </trkpt>
      <trkpt lat="47.690595611929893" lon="12.050009490922093">
        <ele>1091.849999999999909</ele>
        <time>2015-02-15T08:23:45Z</time>
      </trkpt>
      <trkpt lat="47.690694769844413" lon="12.049912009388208">
        <ele>1095</ele>
        <time>2015-02-15T08:24:03Z</time>
      </trkpt>
      <trkpt lat="47.690803566947579" lon="12.049824669957161">
        <ele>1096.910000000000082</ele>
        <time>2015-02-15T08:24:21Z</time>
      </trkpt>
      <trkpt lat="47.690891325473785" lon="12.0497483946383">
        <ele>1100.1099999999999</ele>
        <time>2015-02-15T08:24:37Z</time>
      </trkpt>
      <trkpt lat="47.69098486751318" lon="12.049732133746147">
        <ele>1103.130000000000109</ele>
        <time>2015-02-15T08:24:53Z</time>
      </trkpt>
      <trkpt lat="47.691041193902493" lon="12.049696426838636">
        <ele>1105.200000000000045</ele>
        <time>2015-02-15T08:25:04Z</time>
      </trkpt>
      <trkpt lat="47.691108165308833" lon="12.049648985266685">
        <ele>1108.25</ele>
        <time>2015-02-15T08:25:19Z</time>
      </trkpt>
      <trkpt lat="47.691161306574941" lon="12.049504481256008">
        <ele>1111.569999999999936</ele>
        <time>2015-02-15T08:25:37Z</time>
      </trkpt>
      <trkpt lat="47.691243952140212" lon="12.049387134611607">
        <ele>1114.779999999999973</ele>
        <time>2015-02-15T08:25:57Z</time>
      </trkpt>
      <trkpt lat="47.691330034285784" lon="12.049222597852349">
        <ele>1117.589999999999918</ele>
        <time>2015-02-15T08:26:17Z</time>
      </trkpt>
      <trkpt lat="47.691427348181605" lon="12.04904917627573">
        <ele>1118.299999999999955</ele>
        <time>2015-02-15T08:26:37Z</time>
      </trkpt>
      <trkpt lat="47.69149063155055" lon="12.04889721237123">
        <ele>1120.240000000000009</ele>
        <time>2015-02-15T08:26:56Z</time>
      </trkpt>
      <trkpt lat="47.691528266295791" lon="12.048775507137179">
        <ele>1123.279999999999973</ele>
        <time>2015-02-15T08:27:11Z</time>
      </trkpt>
      <trkpt lat="47.691577216610312" lon="12.048590602353215">
        <ele>1125.430000000000064</ele>
        <time>2015-02-15T08:27:29Z</time>
      </trkpt>
      <trkpt lat="47.691576797515154" lon="12.048590518534184">
        <ele>1125.369999999999891</ele>
        <time>2015-02-15T08:27:51Z</time>
      </trkpt>
      <trkpt lat="47.691600937396288" lon="12.048606611788273">
        <ele>1124.769999999999982</ele>
        <time>2015-02-15T08:28:12Z</time>
      </trkpt>
      <trkpt lat="47.691603703424335" lon="12.048571575433016">
        <ele>1125.369999999999891</ele>
        <time>2015-02-15T08:28:24Z</time>
      </trkpt>
      <trkpt lat="47.691606301814318" lon="12.048507705330849">
        <ele>1126.029999999999973</ele>
        <time>2015-02-15T08:28:42Z</time>
      </trkpt>
      <trkpt lat="47.691613677889109" lon="12.048495300114155">
        <ele>1126</ele>
        <time>2015-02-15T08:28:52Z</time>
      </trkpt>
      <trkpt lat="47.69166505895555" lon="12.048245603218675">
        <ele>1129.430000000000064</ele>
        <time>2015-02-15T08:29:11Z</time>
      </trkpt>
      <trkpt lat="47.691720044240355" lon="12.047988781705499">
        <ele>1131.730000000000018</ele>
        <time>2015-02-15T08:29:31Z</time>
      </trkpt>
      <trkpt lat="47.69176471978426" lon="12.047804798930883">
        <ele>1134.400000000000091</ele>
        <time>2015-02-15T08:29:46Z</time>
      </trkpt>
      <trkpt lat="47.691786009818316" lon="12.047561975196004">
        <ele>1137.470000000000027</ele>
        <time>2015-02-15T08:30:05Z</time>
      </trkpt>
      <trkpt lat="47.691820962354541" lon="12.047500032931566">
        <ele>1139.069999999999936</ele>
        <time>2015-02-15T08:30:21Z</time>
      </trkpt>
      <trkpt lat="47.691828086972237" lon="12.047494249418378">
        <ele>1138.819999999999936</ele>
        <time>2015-02-15T08:30:43Z</time>
      </trkpt>
      <trkpt lat="47.691840743646026" lon="12.047499278560281">
        <ele>1139.6400000000001</ele>
        <time>2015-02-15T08:31:04Z</time>
      </trkpt>
      <trkpt lat="47.691862704232335" lon="12.047433564439416">
        <ele>1140.019999999999982</ele>
        <time>2015-02-15T08:31:20Z</time>
      </trkpt>
      <trkpt lat="47.691868236288428" lon="12.047390984371305">
        <ele>1141.200000000000045</ele>
        <time>2015-02-15T08:31:36Z</time>
      </trkpt>
      <trkpt lat="47.691918108612299" lon="12.047356786206365">
        <ele>1142.519999999999982</ele>
        <time>2015-02-15T08:31:52Z</time>
      </trkpt>
      <trkpt lat="47.691908972337842" lon="12.047349326312542">
        <ele>1141.779999999999973</ele>
        <time>2015-02-15T08:32:22Z</time>
      </trkpt>
      <trkpt lat="47.69191718660295" lon="12.047341279685497">
        <ele>1142.180000000000064</ele>
        <time>2015-02-15T08:32:54Z</time>
      </trkpt>
      <trkpt lat="47.691923305392265" lon="12.047330215573311">
        <ele>1141.690000000000055</ele>
        <time>2015-02-15T08:33:28Z</time>
      </trkpt>
      <trkpt lat="47.691922802478075" lon="12.047338346019387">
        <ele>1141.940000000000055</ele>
        <time>2015-02-15T08:34:04Z</time>
      </trkpt>
      <trkpt lat="47.691924143582582" lon="12.047360306605697">
        <ele>1141.130000000000109</ele>
        <time>2015-02-15T08:34:41Z</time>
      </trkpt>
      <trkpt lat="47.691912744194269" lon="12.047361647710204">
        <ele>1140.779999999999973</ele>
        <time>2015-02-15T08:35:24Z</time>
      </trkpt>
      <trkpt lat="47.691916516050696" lon="12.047373130917549">
        <ele>1141.210000000000036</ele>
        <time>2015-02-15T08:36:04Z</time>
      </trkpt>
      <trkpt lat="47.691920707002282" lon="12.04736583866179">
        <ele>1141.1400000000001</ele>
        <time>2015-02-15T08:36:38Z</time>
      </trkpt>
      <trkpt lat="47.691930346190929" lon="12.047349074855447">
        <ele>1140.789999999999964</ele>
        <time>2015-02-15T08:37:17Z</time>
      </trkpt>
      <trkpt lat="47.691925065591931" lon="12.047322168946266">
        <ele>1141.039999999999964</ele>
        <time>2015-02-15T08:37:59Z</time>
      </trkpt>
      <trkpt lat="47.691932860761881" lon="12.047311021015048">
        <ele>1141.099999999999909</ele>
        <time>2015-02-15T08:38:31Z</time>
      </trkpt>
      <trkpt lat="47.691946439445019" lon="12.047310601919889">
        <ele>1139.710000000000036</ele>
        <time>2015-02-15T08:38:50Z</time>
      </trkpt>
      <trkpt lat="47.691945601254702" lon="12.047335412353277">
        <ele>1140.559999999999945</ele>
        <time>2015-02-15T08:39:10Z</time>
      </trkpt>
      <trkpt lat="47.691950211301446" lon="12.047340022400022">
        <ele>1140.430000000000064</ele>
        <time>2015-02-15T08:40:02Z</time>
      </trkpt>
      <trkpt lat="47.691945601254702" lon="12.047332227230072">
        <ele>1139.990000000000009</ele>
        <time>2015-02-15T08:40:59Z</time>
      </trkpt>
      <trkpt lat="47.691938308998942" lon="12.047341950237751">
        <ele>1140</ele>
        <time>2015-02-15T08:41:58Z</time>
      </trkpt>
      <trkpt lat="47.691935710608959" lon="12.047332059592009">
        <ele>1139.740000000000009</ele>
        <time>2015-02-15T08:42:55Z</time>
      </trkpt>
      <trkpt lat="47.691921796649694" lon="12.047338346019387">
        <ele>1139.329999999999927</ele>
        <time>2015-02-15T08:43:18Z</time>
      </trkpt>
      <trkpt lat="47.691955994814634" lon="12.047298448160291">
        <ele>1140.670000000000073</ele>
        <time>2015-02-15T08:43:39Z</time>
      </trkpt>
      <trkpt lat="47.691998993977904" lon="12.047208761796355">
        <ele>1143.700000000000045</ele>
        <time>2015-02-15T08:43:54Z</time>
      </trkpt>
      <trkpt lat="47.692100331187248" lon="12.047167774289846">
        <ele>1146.009999999999991</ele>
        <time>2015-02-15T08:44:12Z</time>
      </trkpt>
      <trkpt lat="47.692147353664041" lon="12.047109771519899">
        <ele>1147.029999999999973</ele>
        <time>2015-02-15T08:44:28Z</time>
      </trkpt>
      <trkpt lat="47.692153053358197" lon="12.046954203397036">
        <ele>1150.289999999999964</ele>
        <time>2015-02-15T08:44:43Z</time>
      </trkpt>
      <trkpt lat="47.692164033651352" lon="12.046828893944621">
        <ele>1152.470000000000027</ele>
        <time>2015-02-15T08:45:01Z</time>
      </trkpt>
      <trkpt lat="47.692180629819632" lon="12.046754378825426">
        <ele>1154.190000000000055</ele>
        <time>2015-02-15T08:45:16Z</time>
      </trkpt>
      <trkpt lat="47.692225556820631" lon="12.046687826514244">
        <ele>1157.630000000000109</ele>
        <time>2015-02-15T08:45:34Z</time>
      </trkpt>
      <trkpt lat="47.692280374467373" lon="12.046590931713581">
        <ele>1161.200000000000045</ele>
        <time>2015-02-15T08:45:50Z</time>
      </trkpt>
      <trkpt lat="47.692334521561861" lon="12.04650585539639">
        <ele>1164.259999999999991</ele>
        <time>2015-02-15T08:46:06Z</time>
      </trkpt>
      <trkpt lat="47.692391267046332" lon="12.046404099091887">
        <ele>1167.759999999999991</ele>
        <time>2015-02-15T08:46:23Z</time>
      </trkpt>
      <trkpt lat="47.692441390827298" lon="12.046240568161011">
        <ele>1170.569999999999936</ele>
        <time>2015-02-15T08:46:43Z</time>
      </trkpt>
      <trkpt lat="47.692472906783223" lon="12.046127328649163">
        <ele>1174.039999999999964</ele>
        <time>2015-02-15T08:46:56Z</time>
      </trkpt>
      <trkpt lat="47.692496376112103" lon="12.046074355021119">
        <ele>1174.930000000000064</ele>
        <time>2015-02-15T08:47:13Z</time>
      </trkpt>
      <trkpt lat="47.692530490458012" lon="12.045954493805766">
        <ele>1176.829999999999927</ele>
        <time>2015-02-15T08:47:30Z</time>
      </trkpt>
      <trkpt lat="47.692552702501416" lon="12.045847037807107">
        <ele>1179.839999999999918</ele>
        <time>2015-02-15T08:47:43Z</time>
      </trkpt>
      <trkpt lat="47.692587738856673" lon="12.045735390856862">
        <ele>1182.990000000000009</ele>
        <time>2015-02-15T08:47:58Z</time>
      </trkpt>
      <trkpt lat="47.692631408572197" lon="12.045634724199772">
        <ele>1186.180000000000064</ele>
        <time>2015-02-15T08:48:13Z</time>
      </trkpt>
      <trkpt lat="47.692667450755835" lon="12.045487202703953">
        <ele>1189.3900000000001</ele>
        <time>2015-02-15T08:48:31Z</time>
      </trkpt>
      <trkpt lat="47.692670552060008" lon="12.045315122231841">
        <ele>1192.539999999999964</ele>
        <time>2015-02-15T08:48:49Z</time>
      </trkpt>
      <trkpt lat="47.692693183198571" lon="12.045165002346039">
        <ele>1195.339999999999918</ele>
        <time>2015-02-15T08:49:08Z</time>
      </trkpt>
      <trkpt lat="47.692718831822276" lon="12.045037178322673">
        <ele>1198.400000000000091</ele>
        <time>2015-02-15T08:49:24Z</time>
      </trkpt>
      <trkpt lat="47.692729057744145" lon="12.044906001538038">
        <ele>1201.549999999999955</ele>
        <time>2015-02-15T08:49:39Z</time>
      </trkpt>
      <trkpt lat="47.692714724689722" lon="12.044756133109331">
        <ele>1203.8599999999999</ele>
        <time>2015-02-15T08:49:58Z</time>
      </trkpt>
      <trkpt lat="47.69270340912044" lon="12.044624872505665">
        <ele>1207.059999999999945</ele>
        <time>2015-02-15T08:50:15Z</time>
      </trkpt>
      <trkpt lat="47.692720089107752" lon="12.044511130079627">
        <ele>1210.220000000000027</ele>
        <time>2015-02-15T08:50:31Z</time>
      </trkpt>
      <trkpt lat="47.692821929231286" lon="12.044395208358765">
        <ele>1212.849999999999909</ele>
        <time>2015-02-15T08:50:51Z</time>
      </trkpt>
      <trkpt lat="47.69290273077786" lon="12.044301079586148">
        <ele>1216.210000000000036</ele>
        <time>2015-02-15T08:51:07Z</time>
      </trkpt>
      <trkpt lat="47.69300926476717" lon="12.044162610545754">
        <ele>1219.269999999999982</ele>
        <time>2015-02-15T08:51:28Z</time>
      </trkpt>
      <trkpt lat="47.693088054656982" lon="12.04405683092773">
        <ele>1222.799999999999955</ele>
        <time>2015-02-15T08:51:45Z</time>
      </trkpt>
      <trkpt lat="47.693185284733772" lon="12.043917858973145">
        <ele>1225.119999999999891</ele>
        <time>2015-02-15T08:52:04Z</time>
      </trkpt>
      <trkpt lat="47.69328729249537" lon="12.043806798756123">
        <ele>1228.299999999999955</ele>
        <time>2015-02-15T08:52:22Z</time>
      </trkpt>
      <trkpt lat="47.693368513137102" lon="12.043754830956459">
        <ele>1230.519999999999982</ele>
        <time>2015-02-15T08:52:38Z</time>
      </trkpt>
      <trkpt lat="47.693430874496698" lon="12.043744772672653">
        <ele>1232.019999999999982</ele>
        <time>2015-02-15T08:52:56Z</time>
      </trkpt>
      <trkpt lat="47.693462977185845" lon="12.043725913390517">
        <ele>1233.269999999999982</ele>
        <time>2015-02-15T08:53:17Z</time>
      </trkpt>
      <trkpt lat="47.693470772355795" lon="12.043735720217228">
        <ele>1233.1400000000001</ele>
        <time>2015-02-15T08:54:04Z</time>
      </trkpt>
      <trkpt lat="47.693482171744108" lon="12.043725410476327">
        <ele>1233.309999999999945</ele>
        <time>2015-02-15T08:54:38Z</time>
      </trkpt>
      <trkpt lat="47.693475130945444" lon="12.043715184554458">
        <ele>1233.119999999999891</ele>
        <time>2015-02-15T08:55:25Z</time>
      </trkpt>
      <trkpt lat="47.693492481485009" lon="12.043695403262973">
        <ele>1233.759999999999991</ele>
        <time>2015-02-15T08:56:02Z</time>
      </trkpt>
      <trkpt lat="47.693637404590845" lon="12.043642681092024">
        <ele>1235.559999999999945</ele>
        <time>2015-02-15T08:56:21Z</time>
      </trkpt>
      <trkpt lat="47.693767994642258" lon="12.043578056618571">
        <ele>1237.900000000000091</ele>
        <time>2015-02-15T08:56:41Z</time>
      </trkpt>
      <trkpt lat="47.693787859752774" lon="12.043568165972829">
        <ele>1238.210000000000036</ele>
        <time>2015-02-15T08:56:43Z</time>
      </trkpt>
      <trkpt lat="47.693909732624888" lon="12.043489376083016">
        <ele>1239.920000000000073</ele>
        <time>2015-02-15T08:57:01Z</time>
      </trkpt>
      <trkpt lat="47.694020289927721" lon="12.04341234639287">
        <ele>1241.130000000000109</ele>
        <time>2015-02-15T08:57:17Z</time>
      </trkpt>
      <trkpt lat="47.694110898301005" lon="12.043257616460323">
        <ele>1243.269999999999982</ele>
        <time>2015-02-15T08:57:34Z</time>
      </trkpt>
      <trkpt lat="47.694128835573792" lon="12.043056199327111">
        <ele>1244.420000000000073</ele>
        <time>2015-02-15T08:57:51Z</time>
      </trkpt>
      <trkpt lat="47.694095391780138" lon="12.042826870456338">
        <ele>1247.170000000000073</ele>
        <time>2015-02-15T08:58:12Z</time>
      </trkpt>
      <trkpt lat="47.694111485034227" lon="12.042666859924793">
        <ele>1249.6099999999999</ele>
        <time>2015-02-15T08:58:30Z</time>
      </trkpt>
      <trkpt lat="47.694128332659602" lon="12.042671721428633">
        <ele>1250.190000000000055</ele>
        <time>2015-02-15T08:58:37Z</time>
      </trkpt>
      <trkpt lat="47.694233190268278" lon="12.042659148573875">
        <ele>1253.069999999999936</ele>
        <time>2015-02-15T08:58:53Z</time>
      </trkpt>
      <trkpt lat="47.694360762834549" lon="12.042645066976547">
        <ele>1254.920000000000073</ele>
        <time>2015-02-15T08:59:10Z</time>
      </trkpt>
      <trkpt lat="47.694440055638552" lon="12.042597876861691">
        <ele>1256.680000000000064</ele>
        <time>2015-02-15T08:59:27Z</time>
      </trkpt>
      <trkpt lat="47.694451455026865" lon="12.042595027014613">
        <ele>1256.980000000000018</ele>
        <time>2015-02-15T08:59:57Z</time>
      </trkpt>
      <trkpt lat="47.69447710365057" lon="12.042491259053349">
        <ele>1258.680000000000064</ele>
        <time>2015-02-15T09:00:21Z</time>
      </trkpt>
      <trkpt lat="47.694496884942055" lon="12.0422796998173">
        <ele>1260.5</ele>
        <time>2015-02-15T09:00:41Z</time>
      </trkpt>
      <trkpt lat="47.694507446140051" lon="12.042106948792934">
        <ele>1263.660000000000082</ele>
        <time>2015-02-15T09:00:58Z</time>
      </trkpt>
      <trkpt lat="47.69452010281384" lon="12.041915338486433">
        <ele>1265.210000000000036</ele>
        <time>2015-02-15T09:01:19Z</time>
      </trkpt>
      <trkpt lat="47.694522701203823" lon="12.041829591616988">
        <ele>1267.509999999999991</ele>
        <time>2015-02-15T09:01:45Z</time>
      </trkpt>
      <trkpt lat="47.694493029266596" lon="12.041756752878428">
        <ele>1268.789999999999964</ele>
        <time>2015-02-15T09:01:56Z</time>
      </trkpt>
      <trkpt lat="47.694478360936046" lon="12.041740827262402">
        <ele>1268.680000000000064</ele>
        <time>2015-02-15T09:01:58Z</time>
      </trkpt>
      <trkpt lat="47.694395380094647" lon="12.041572937741876">
        <ele>1268.690000000000055</ele>
        <time>2015-02-15T09:02:13Z</time>
      </trkpt>
      <trkpt lat="47.69434567540884" lon="12.041288204491138">
        <ele>1267.450000000000045</ele>
        <time>2015-02-15T09:02:34Z</time>
      </trkpt>
      <trkpt lat="47.694401331245899" lon="12.041074549779296">
        <ele>1270.119999999999891</ele>
        <time>2015-02-15T09:02:51Z</time>
      </trkpt>
      <trkpt lat="47.69449420273304" lon="12.040851172059774">
        <ele>1271.220000000000027</ele>
        <time>2015-02-15T09:03:10Z</time>
      </trkpt>
      <trkpt lat="47.694518510252237" lon="12.040673140436411">
        <ele>1273.1400000000001</ele>
        <time>2015-02-15T09:03:27Z</time>
      </trkpt>
      <trkpt lat="47.694459753111005" lon="12.040492342785001">
        <ele>1276.339999999999918</ele>
        <time>2015-02-15T09:03:46Z</time>
      </trkpt>
      <trkpt lat="47.694406444206834" lon="12.040362171828747">
        <ele>1279.569999999999936</ele>
        <time>2015-02-15T09:04:09Z</time>
      </trkpt>
      <trkpt lat="47.694386160001159" lon="12.04020501114428">
        <ele>1282.009999999999991</ele>
        <time>2015-02-15T09:04:31Z</time>
      </trkpt>
      <trkpt lat="47.694338466972113" lon="12.039867220446467">
        <ele>1283.730000000000018</ele>
        <time>2015-02-15T09:04:56Z</time>
      </trkpt>
      <trkpt lat="47.694282978773117" lon="12.039777198806405">
        <ele>1285.009999999999991</ele>
        <time>2015-02-15T09:05:15Z</time>
      </trkpt>
      <trkpt lat="47.694193879142404" lon="12.039629258215427">
        <ele>1288.329999999999927</ele>
        <time>2015-02-15T09:05:36Z</time>
      </trkpt>
      <trkpt lat="47.694073598831892" lon="12.039417196065187">
        <ele>1291.240000000000009</ele>
        <time>2015-02-15T09:05:58Z</time>
      </trkpt>
      <trkpt lat="47.694003023207188" lon="12.039216868579388">
        <ele>1293.440000000000055</ele>
        <time>2015-02-15T09:06:21Z</time>
      </trkpt>
      <trkpt lat="47.693951977416873" lon="12.039020396769047">
        <ele>1296.490000000000009</ele>
        <time>2015-02-15T09:06:41Z</time>
      </trkpt>
      <trkpt lat="47.693957006558776" lon="12.038995418697596">
        <ele>1296.720000000000027</ele>
        <time>2015-02-15T09:07:03Z</time>
      </trkpt>
      <trkpt lat="47.69396161660552" lon="12.03891696408391">
        <ele>1298.6400000000001</ele>
        <time>2015-02-15T09:07:17Z</time>
      </trkpt>
      <trkpt lat="47.693924568593502" lon="12.038559224456549">
        <ele>1301.809999999999945</ele>
        <time>2015-02-15T09:07:40Z</time>
      </trkpt>
      <trkpt lat="47.693896321579814" lon="12.038280609995127">
        <ele>1303.490000000000009</ele>
        <time>2015-02-15T09:07:59Z</time>
      </trkpt>
      <trkpt lat="47.693922054022551" lon="12.038033762946725">
        <ele>1305.599999999999909</ele>
        <time>2015-02-15T09:08:17Z</time>
      </trkpt>
      <trkpt lat="47.693927250802517" lon="12.037791190668941">
        <ele>1307.680000000000064</ele>
        <time>2015-02-15T09:08:36Z</time>
      </trkpt>
      <trkpt lat="47.693943846970797" lon="12.037547528743744">
        <ele>1309.799999999999955</ele>
        <time>2015-02-15T09:08:56Z</time>
      </trkpt>
      <trkpt lat="47.69395625218749" lon="12.037316272035241">
        <ele>1311.309999999999945</ele>
        <time>2015-02-15T09:09:15Z</time>
      </trkpt>
      <trkpt lat="47.693951139226556" lon="12.037282409146428">
        <ele>1310.6099999999999</ele>
        <time>2015-02-15T09:09:34Z</time>
      </trkpt>
      <trkpt lat="47.693973602727056" lon="12.037283163517714">
        <ele>1311.509999999999991</ele>
        <time>2015-02-15T09:10:08Z</time>
      </trkpt>
      <trkpt lat="47.694004699587822" lon="12.037159949541092">
        <ele>1313.029999999999973</ele>
        <time>2015-02-15T09:10:32Z</time>
      </trkpt>
      <trkpt lat="47.694066222757101" lon="12.036943696439266">
        <ele>1314.869999999999891</ele>
        <time>2015-02-15T09:10:51Z</time>
      </trkpt>
      <trkpt lat="47.694094134494662" lon="12.036815453320742">
        <ele>1318.319999999999936</ele>
        <time>2015-02-15T09:11:03Z</time>
      </trkpt>
      <trkpt lat="47.694134032353759" lon="12.036661896854639">
        <ele>1321.509999999999991</ele>
        <time>2015-02-15T09:11:19Z</time>
      </trkpt>
      <trkpt lat="47.694150293245912" lon="12.036667764186859">
        <ele>1321.059999999999945</ele>
        <time>2015-02-15T09:11:55Z</time>
      </trkpt>
      <trkpt lat="47.694172840565443" lon="12.036673380061984">
        <ele>1320.599999999999909</ele>
        <time>2015-02-15T09:12:32Z</time>
      </trkpt>
      <trkpt lat="47.694172421470284" lon="12.03665217384696">
        <ele>1320.759999999999991</ele>
        <time>2015-02-15T09:12:58Z</time>
      </trkpt>
      <trkpt lat="47.694149874150753" lon="12.036629375070333">
        <ele>1320.660000000000082</ele>
        <time>2015-02-15T09:13:32Z</time>
      </trkpt>
      <trkpt lat="47.694140905514359" lon="12.036622501909733">
        <ele>1320.819999999999936</ele>
        <time>2015-02-15T09:13:53Z</time>
      </trkpt>
      <trkpt lat="47.694135038182139" lon="12.03663264401257">
        <ele>1320.650000000000091</ele>
        <time>2015-02-15T09:14:22Z</time>
      </trkpt>
      <trkpt lat="47.694151382893324" lon="12.036509094759822">
        <ele>1322.5</ele>
        <time>2015-02-15T09:14:45Z</time>
      </trkpt>
      <trkpt lat="47.694190610200167" lon="12.036336846649647">
        <ele>1325.279999999999973</ele>
        <time>2015-02-15T09:15:03Z</time>
      </trkpt>
      <trkpt lat="47.694245427846909" lon="12.036294769495726">
        <ele>1328.009999999999991</ele>
        <time>2015-02-15T09:15:22Z</time>
      </trkpt>
      <trkpt lat="47.694292701780796" lon="12.036336679011583">
        <ele>1329.740000000000009</ele>
        <time>2015-02-15T09:15:29Z</time>
      </trkpt>
      <trkpt lat="47.69435741007328" lon="12.036328967660666">
        <ele>1332.549999999999955</ele>
        <time>2015-02-15T09:15:46Z</time>
      </trkpt>
      <trkpt lat="47.694403761997819" lon="12.036289405077696">
        <ele>1335.619999999999891</ele>
        <time>2015-02-15T09:16:04Z</time>
      </trkpt>
      <trkpt lat="47.694466710090637" lon="12.036310527473688">
        <ele>1338.960000000000036</ele>
        <time>2015-02-15T09:16:18Z</time>
      </trkpt>
      <trkpt lat="47.694514654576778" lon="12.036237604916096">
        <ele>1341.970000000000027</ele>
        <time>2015-02-15T09:16:37Z</time>
      </trkpt>
      <trkpt lat="47.694530328735709" lon="12.036228803917766">
        <ele>1342.529999999999973</ele>
        <time>2015-02-15T09:16:57Z</time>
      </trkpt>
      <trkpt lat="47.694568717852235" lon="12.036295523867011">
        <ele>1344.529999999999973</ele>
        <time>2015-02-15T09:17:17Z</time>
      </trkpt>
      <trkpt lat="47.694617584347725" lon="12.036356711760163">
        <ele>1346.589999999999918</ele>
        <time>2015-02-15T09:17:40Z</time>
      </trkpt>
      <trkpt lat="47.694664523005486" lon="12.036439692601562">
        <ele>1349.170000000000073</ele>
        <time>2015-02-15T09:18:02Z</time>
      </trkpt>
      <trkpt lat="47.69469209946692" lon="12.036523008719087">
        <ele>1352.180000000000064</ele>
        <time>2015-02-15T09:18:19Z</time>
      </trkpt>
      <trkpt lat="47.694721771404147" lon="12.036481937393546">
        <ele>1354.160000000000082</ele>
        <time>2015-02-15T09:18:36Z</time>
      </trkpt>
      <trkpt lat="47.694755466654897" lon="12.036505741998553">
        <ele>1354.619999999999891</ele>
        <time>2015-02-15T09:18:56Z</time>
      </trkpt>
      <trkpt lat="47.694777427241206" lon="12.036500461399555">
        <ele>1356.029999999999973</ele>
        <time>2015-02-15T09:19:14Z</time>
      </trkpt>
      <trkpt lat="47.694790754467249" lon="12.036547148600221">
        <ele>1357.730000000000018</ele>
        <time>2015-02-15T09:19:32Z</time>
      </trkpt>
      <trkpt lat="47.694810535758734" lon="12.036576401442289">
        <ele>1358.289999999999964</ele>
        <time>2015-02-15T09:19:55Z</time>
      </trkpt>
      <trkpt lat="47.69486459903419" lon="12.036627447232604">
        <ele>1361.339999999999918</ele>
        <time>2015-02-15T09:20:08Z</time>
      </trkpt>
      <trkpt lat="47.694901814684272" lon="12.03664680942893">
        <ele>1363.1099999999999</ele>
        <time>2015-02-15T09:20:24Z</time>
      </trkpt>
      <trkpt lat="47.694923272356391" lon="12.036639349535108">
        <ele>1364.329999999999927</ele>
        <time>2015-02-15T09:20:44Z</time>
      </trkpt>
      <trkpt lat="47.694962667301297" lon="12.036670027300715">
        <ele>1366.670000000000073</ele>
        <time>2015-02-15T09:21:04Z</time>
      </trkpt>
      <trkpt lat="47.694980856031179" lon="12.036652425304055">
        <ele>1367.910000000000082</ele>
        <time>2015-02-15T09:21:12Z</time>
      </trkpt>
      <trkpt lat="47.694992842152715" lon="12.03667220659554">
        <ele>1368.339999999999918</ele>
        <time>2015-02-15T09:21:37Z</time>
      </trkpt>
      <trkpt lat="47.695022681728005" lon="12.036745045334101">
        <ele>1371.930000000000064</ele>
        <time>2015-02-15T09:21:49Z</time>
      </trkpt>
      <trkpt lat="47.695052605122328" lon="12.036824589595199">
        <ele>1375.039999999999964</ele>
        <time>2015-02-15T09:22:07Z</time>
      </trkpt>
      <trkpt lat="47.695061322301626" lon="12.036972111091018">
        <ele>1376.650000000000091</ele>
        <time>2015-02-15T09:22:29Z</time>
      </trkpt>
      <trkpt lat="47.695055957883596" lon="12.03707579523325">
        <ele>1380.279999999999973</ele>
        <time>2015-02-15T09:22:50Z</time>
      </trkpt>
      <trkpt lat="47.695033494383097" lon="12.037121476605535">
        <ele>1379.200000000000045</ele>
        <time>2015-02-15T09:23:16Z</time>
      </trkpt>
      <trkpt lat="47.695075822994113" lon="12.037256676703691">
        <ele>1381.589999999999918</ele>
        <time>2015-02-15T09:23:39Z</time>
      </trkpt>
      <trkpt lat="47.695094011723995" lon="12.03734016045928">
        <ele>1381.779999999999973</ele>
        <time>2015-02-15T09:24:00Z</time>
      </trkpt>
      <trkpt lat="47.695106249302626" lon="12.037360277026892">
        <ele>1382.680000000000064</ele>
        <time>2015-02-15T09:24:24Z</time>
      </trkpt>
      <trkpt lat="47.69512502476573" lon="12.03736312687397">
        <ele>1382.230000000000018</ele>
        <time>2015-02-15T09:24:48Z</time>
      </trkpt>
      <trkpt lat="47.695145728066564" lon="12.037378130480647">
        <ele>1383.3599999999999</ele>
        <time>2015-02-15T09:25:20Z</time>
      </trkpt>
      <trkpt lat="47.695126114413142" lon="12.037357510998845">
        <ele>1383.279999999999973</ele>
        <time>2015-02-15T09:25:45Z</time>
      </trkpt>
      <trkpt lat="47.695113373920321" lon="12.0373753644526">
        <ele>1382.339999999999918</ele>
        <time>2015-02-15T09:26:13Z</time>
      </trkpt>
      <trkpt lat="47.695115804672241" lon="12.037445856258273">
        <ele>1381.819999999999936</ele>
        <time>2015-02-15T09:26:37Z</time>
      </trkpt>
      <trkpt lat="47.695121001452208" lon="12.037490447983146">
        <ele>1380.75</ele>
        <time>2015-02-15T09:27:02Z</time>
      </trkpt>
      <trkpt lat="47.695103650912642" lon="12.037513414397836">
        <ele>1380.539999999999964</ele>
        <time>2015-02-15T09:27:25Z</time>
      </trkpt>
      <trkpt lat="47.695106752216816" lon="12.037554150447249">
        <ele>1379.559999999999945</ele>
        <time>2015-02-15T09:27:51Z</time>
      </trkpt>
      <trkpt lat="47.695114212110639" lon="12.037620870396495">
        <ele>1376.529999999999973</ele>
        <time>2015-02-15T09:27:59Z</time>
      </trkpt>
      <trkpt lat="47.695113541558385" lon="12.0376274921">
        <ele>1376.519999999999982</ele>
        <time>2015-02-15T09:28:00Z</time>
      </trkpt>
      <trkpt lat="47.69509132951498" lon="12.037698235362768">
        <ele>1376.240000000000009</ele>
        <time>2015-02-15T09:28:30Z</time>
      </trkpt>
      <trkpt lat="47.695072051137686" lon="12.037681806832552">
        <ele>1376.819999999999936</ele>
        <time>2015-02-15T09:28:52Z</time>
      </trkpt>
      <trkpt lat="47.695053778588772" lon="12.037660852074623">
        <ele>1375.960000000000036</ele>
        <time>2015-02-15T09:29:20Z</time>
      </trkpt>
      <trkpt lat="47.695093424990773" lon="12.037769481539726">
        <ele>1374.3900000000001</ele>
        <time>2015-02-15T09:29:44Z</time>
      </trkpt>
      <trkpt lat="47.695143213495612" lon="12.037900071591139">
        <ele>1374.200000000000045</ele>
        <time>2015-02-15T09:30:08Z</time>
      </trkpt>
      <trkpt lat="47.695247316733003" lon="12.038044575601816">
        <ele>1371.430000000000064</ele>
        <time>2015-02-15T09:30:29Z</time>
      </trkpt>
      <trkpt lat="47.695345804095268" lon="12.038194024935365">
        <ele>1371.210000000000036</ele>
        <time>2015-02-15T09:30:52Z</time>
      </trkpt>
      <trkpt lat="47.695389641448855" lon="12.038213470950723">
        <ele>1371.5</ele>
        <time>2015-02-15T09:31:12Z</time>
      </trkpt>
      <trkpt lat="47.695442279800773" lon="12.038303827866912">
        <ele>1370.900000000000091</ele>
        <time>2015-02-15T09:31:40Z</time>
      </trkpt>
      <trkpt lat="47.695470442995429" lon="12.038378845900297">
        <ele>1368.759999999999991</ele>
        <time>2015-02-15T09:32:04Z</time>
      </trkpt>
      <trkpt lat="47.695519477128983" lon="12.038465514779091">
        <ele>1366.240000000000009</ele>
        <time>2015-02-15T09:32:27Z</time>
      </trkpt>
      <trkpt lat="47.695580748841166" lon="12.038557967171073">
        <ele>1364.089999999999918</ele>
        <time>2015-02-15T09:32:45Z</time>
      </trkpt>
      <trkpt lat="47.695655347779393" lon="12.038667686283588">
        <ele>1363.039999999999964</ele>
        <time>2015-02-15T09:33:01Z</time>
      </trkpt>
      <trkpt lat="47.695725839585066" lon="12.03881093300879">
        <ele>1363</ele>
        <time>2015-02-15T09:33:24Z</time>
      </trkpt>
      <trkpt lat="47.695860452950001" lon="12.038849489763379">
        <ele>1365.009999999999991</ele>
        <time>2015-02-15T09:33:49Z</time>
      </trkpt>
      <trkpt lat="47.695867493748665" lon="12.0388622302562">
        <ele>1365.059999999999945</ele>
        <time>2015-02-15T09:33:54Z</time>
      </trkpt>
      <trkpt lat="47.695953408256173" lon="12.038917802274227">
        <ele>1365.380000000000109</ele>
        <time>2015-02-15T09:34:10Z</time>
      </trkpt>
      <trkpt lat="47.696037478744984" lon="12.038962729275227">
        <ele>1367.6099999999999</ele>
        <time>2015-02-15T09:34:22Z</time>
      </trkpt>
      <trkpt lat="47.696080226451159" lon="12.039028108119965">
        <ele>1369.319999999999936</ele>
        <time>2015-02-15T09:34:42Z</time>
      </trkpt>
      <trkpt lat="47.696145689114928" lon="12.039089379832149">
        <ele>1369.420000000000073</ele>
        <time>2015-02-15T09:35:11Z</time>
      </trkpt>
      <trkpt lat="47.696256497874856" lon="12.039125086739659">
        <ele>1371.299999999999955</ele>
        <time>2015-02-15T09:35:34Z</time>
      </trkpt>
      <trkpt lat="47.696399493142962" lon="12.039198763668537">
        <ele>1374.839999999999918</ele>
        <time>2015-02-15T09:35:55Z</time>
      </trkpt>
      <trkpt lat="47.696489514783025" lon="12.039199015125632">
        <ele>1376.75</ele>
        <time>2015-02-15T09:36:15Z</time>
      </trkpt>
      <trkpt lat="47.69652203656733" lon="12.03919792547822">
        <ele>1378.039999999999964</ele>
        <time>2015-02-15T09:36:33Z</time>
      </trkpt>
      <trkpt lat="47.696516001597047" lon="12.039104383438826">
        <ele>1381.119999999999891</ele>
        <time>2015-02-15T09:36:51Z</time>
      </trkpt>
      <trkpt lat="47.696562940254807" lon="12.039129193872213">
        <ele>1382.069999999999936</ele>
        <time>2015-02-15T09:37:12Z</time>
      </trkpt>
      <trkpt lat="47.696644915267825" lon="12.039175126701593">
        <ele>1383.799999999999955</ele>
        <time>2015-02-15T09:37:29Z</time>
      </trkpt>
      <trkpt lat="47.696632174775004" lon="12.039093151688576">
        <ele>1386.549999999999955</ele>
        <time>2015-02-15T09:37:52Z</time>
      </trkpt>
      <trkpt lat="47.696648854762316" lon="12.039065239951015">
        <ele>1388.519999999999982</ele>
        <time>2015-02-15T09:38:12Z</time>
      </trkpt>
      <trkpt lat="47.696613566949964" lon="12.039014780893922">
        <ele>1391.6099999999999</ele>
        <time>2015-02-15T09:38:31Z</time>
      </trkpt>
      <trkpt lat="47.696600658819079" lon="12.038891650736332">
        <ele>1394.450000000000045</ele>
        <time>2015-02-15T09:38:52Z</time>
      </trkpt>
      <trkpt lat="47.696639969944954" lon="12.038880167528987">
        <ele>1396.230000000000018</ele>
        <time>2015-02-15T09:39:11Z</time>
      </trkpt>
      <trkpt lat="47.696652626618743" lon="12.038778997957706">
        <ele>1399.099999999999909</ele>
        <time>2015-02-15T09:39:28Z</time>
      </trkpt>
      <trkpt lat="47.696628989651799" lon="12.038722839206457">
        <ele>1400.380000000000109</ele>
        <time>2015-02-15T09:39:35Z</time>
      </trkpt>
      <trkpt lat="47.696553217247128" lon="12.038628710433841">
        <ele>1403.690000000000055</ele>
        <time>2015-02-15T09:39:50Z</time>
      </trkpt>
      <trkpt lat="47.696503847837448" lon="12.03859543427825">
        <ele>1405.690000000000055</ele>
        <time>2015-02-15T09:40:00Z</time>
      </trkpt>
      <trkpt lat="47.69642723724246" lon="12.038459982722998">
        <ele>1407.1099999999999</ele>
        <time>2015-02-15T09:40:15Z</time>
      </trkpt>
      <trkpt lat="47.69634903408587" lon="12.03832570463419">
        <ele>1409.329999999999927</ele>
        <time>2015-02-15T09:40:32Z</time>
      </trkpt>
      <trkpt lat="47.696292707696557" lon="12.038295697420835">
        <ele>1411.039999999999964</ele>
        <time>2015-02-15T09:40:48Z</time>
      </trkpt>
      <trkpt lat="47.696265047416091" lon="12.03823383897543">
        <ele>1412.279999999999973</ele>
        <time>2015-02-15T09:40:59Z</time>
      </trkpt>
      <trkpt lat="47.696221126243472" lon="12.038142308592796">
        <ele>1414.589999999999918</ele>
        <time>2015-02-15T09:41:16Z</time>
      </trkpt>
      <trkpt lat="47.696145353838801" lon="12.038081120699644">
        <ele>1417.410000000000082</ele>
        <time>2015-02-15T09:41:28Z</time>
      </trkpt>
      <trkpt lat="47.696141833439469" lon="12.038051448762417">
        <ele>1419.319999999999936</ele>
        <time>2015-02-15T09:41:46Z</time>
      </trkpt>
      <trkpt lat="47.696090200915933" lon="12.037988500669599">
        <ele>1422.5</ele>
        <time>2015-02-15T09:42:09Z</time>
      </trkpt>
      <trkpt lat="47.696116603910923" lon="12.037963103502989">
        <ele>1424.400000000000091</ele>
        <time>2015-02-15T09:42:30Z</time>
      </trkpt>
      <trkpt lat="47.696167314425111" lon="12.037930162623525">
        <ele>1426.440000000000055</ele>
        <time>2015-02-15T09:42:53Z</time>
      </trkpt>
      <trkpt lat="47.696267226710916" lon="12.037906441837549">
        <ele>1429.6400000000001</ele>
        <time>2015-02-15T09:43:16Z</time>
      </trkpt>
      <trkpt lat="47.696372838690877" lon="12.037905352190137">
        <ele>1431.700000000000045</ele>
        <time>2015-02-15T09:43:38Z</time>
      </trkpt>
      <trkpt lat="47.69639496691525" lon="12.037894539535046">
        <ele>1432.900000000000091</ele>
        <time>2015-02-15T09:44:04Z</time>
      </trkpt>
      <trkpt lat="47.69639203324914" lon="12.037889258936048">
        <ele>1433.25</ele>
        <time>2015-02-15T09:44:41Z</time>
      </trkpt>
      <trkpt lat="47.69634710624814" lon="12.037826227024198">
        <ele>1435.3900000000001</ele>
        <time>2015-02-15T09:45:04Z</time>
      </trkpt>
      <trkpt lat="47.696334533393383" lon="12.037678537890315">
        <ele>1438.970000000000027</ele>
        <time>2015-02-15T09:45:19Z</time>
      </trkpt>
      <trkpt lat="47.696360098198056" lon="12.037612488493323">
        <ele>1440.880000000000109</ele>
        <time>2015-02-15T09:45:35Z</time>
      </trkpt>
      <trkpt lat="47.696451963856816" lon="12.037557922303677">
        <ele>1443.900000000000091</ele>
        <time>2015-02-15T09:45:51Z</time>
      </trkpt>
      <trkpt lat="47.696515582501888" lon="12.037534117698669">
        <ele>1447.25</ele>
        <time>2015-02-15T09:46:03Z</time>
      </trkpt>
      <trkpt lat="47.696528406813741" lon="12.037425572052598">
        <ele>1450.569999999999936</ele>
        <time>2015-02-15T09:46:19Z</time>
      </trkpt>
      <trkpt lat="47.696594204753637" lon="12.037428757175803">
        <ele>1452.089999999999918</ele>
        <time>2015-02-15T09:46:41Z</time>
      </trkpt>
      <trkpt lat="47.696632761508226" lon="12.037432696670294">
        <ele>1452.039999999999964</ele>
        <time>2015-02-15T09:47:26Z</time>
      </trkpt>
      <trkpt lat="47.696708450093865" lon="12.03745256178081">
        <ele>1454.170000000000073</ele>
        <time>2015-02-15T09:47:57Z</time>
      </trkpt>
      <trkpt lat="47.696762681007385" lon="12.037448873743415">
        <ele>1455.650000000000091</ele>
        <time>2015-02-15T09:48:19Z</time>
      </trkpt>
      <trkpt lat="47.696839375421405" lon="12.037470499053597">
        <ele>1458.730000000000018</ele>
        <time>2015-02-15T09:48:32Z</time>
      </trkpt>
      <trkpt lat="47.696868041530252" lon="12.037428086623549">
        <ele>1460.589999999999918</ele>
        <time>2015-02-15T09:48:49Z</time>
      </trkpt>
      <trkpt lat="47.696871729567647" lon="12.037303112447262">
        <ele>1463.759999999999991</ele>
        <time>2015-02-15T09:49:02Z</time>
      </trkpt>
      <trkpt lat="47.696877177804708" lon="12.037184005603194">
        <ele>1466.960000000000036</ele>
        <time>2015-02-15T09:49:16Z</time>
      </trkpt>
      <trkpt lat="47.696909783408046" lon="12.037051990628242">
        <ele>1469.980000000000018</ele>
        <time>2015-02-15T09:49:33Z</time>
      </trkpt>
      <trkpt lat="47.696935767307878" lon="12.036980325356126">
        <ele>1473.079999999999927</ele>
        <time>2015-02-15T09:49:44Z</time>
      </trkpt>
      <trkpt lat="47.697032913565636" lon="12.037078645080328">
        <ele>1476</ele>
        <time>2015-02-15T09:50:05Z</time>
      </trkpt>
      <trkpt lat="47.697140453383327" lon="12.037160117179155">
        <ele>1479.009999999999991</ele>
        <time>2015-02-15T09:50:23Z</time>
      </trkpt>
      <trkpt lat="47.69715478643775" lon="12.037166990339756">
        <ele>1479.940000000000055</ele>
        <time>2015-02-15T09:50:25Z</time>
      </trkpt>
      <trkpt lat="47.697252435609698" lon="12.037224993109703">
        <ele>1483.210000000000036</ele>
        <time>2015-02-15T09:50:42Z</time>
      </trkpt>
      <trkpt lat="47.69729308784008" lon="12.037246283143759">
        <ele>1484.160000000000082</ele>
        <time>2015-02-15T09:51:00Z</time>
      </trkpt>
      <trkpt lat="47.697314545512199" lon="12.037225747480989">
        <ele>1485.829999999999927</ele>
        <time>2015-02-15T09:51:20Z</time>
      </trkpt>
      <trkpt lat="47.697303984314203" lon="12.03705282881856">
        <ele>1489.309999999999945</ele>
        <time>2015-02-15T09:51:36Z</time>
      </trkpt>
      <trkpt lat="47.697327956557274" lon="12.036898350343108">
        <ele>1492.829999999999927</ele>
        <time>2015-02-15T09:51:52Z</time>
      </trkpt>
      <trkpt lat="47.69733021967113" lon="12.036890219897032">
        <ele>1492.990000000000009</ele>
        <time>2015-02-15T09:51:53Z</time>
      </trkpt>
      <trkpt lat="47.697412027046084" lon="12.036967249587178">
        <ele>1496.3599999999999</ele>
        <time>2015-02-15T09:52:11Z</time>
      </trkpt>
      <trkpt lat="47.697434574365616" lon="12.036992227658629">
        <ele>1496.150000000000091</ele>
        <time>2015-02-15T09:52:28Z</time>
      </trkpt>
      <trkpt lat="47.697528284043074" lon="12.03706699423492">
        <ele>1499.5</ele>
        <time>2015-02-15T09:52:48Z</time>
      </trkpt>
      <trkpt lat="47.697599027305841" lon="12.037128852680326">
        <ele>1501</ele>
        <time>2015-02-15T09:53:04Z</time>
      </trkpt>
      <trkpt lat="47.697612270712852" lon="12.037133127450943">
        <ele>1501.950000000000045</ele>
        <time>2015-02-15T09:53:33Z</time>
      </trkpt>
      <trkpt lat="47.697616126388311" lon="12.037028772756457">
        <ele>1503.529999999999973</ele>
        <time>2015-02-15T09:53:48Z</time>
      </trkpt>
      <trkpt lat="47.69763071089983" lon="12.036876389756799">
        <ele>1506.990000000000009</ele>
        <time>2015-02-15T09:54:02Z</time>
      </trkpt>
      <trkpt lat="47.697645630687475" lon="12.036813357844949">
        <ele>1508.539999999999964</ele>
        <time>2015-02-15T09:54:09Z</time>
      </trkpt>
      <trkpt lat="47.697668010368943" lon="12.036704309284687">
        <ele>1511.650000000000091</ele>
        <time>2015-02-15T09:54:21Z</time>
      </trkpt>
      <trkpt lat="47.697706231847405" lon="12.036769101396203">
        <ele>1513.730000000000018</ele>
        <time>2015-02-15T09:54:38Z</time>
      </trkpt>
      <trkpt lat="47.69773623906076" lon="12.036792654544115">
        <ele>1514.809999999999945</ele>
        <time>2015-02-15T09:54:54Z</time>
      </trkpt>
      <trkpt lat="47.69775434397161" lon="12.036799527704716">
        <ele>1515.700000000000045</ele>
        <time>2015-02-15T09:55:28Z</time>
      </trkpt>
      <trkpt lat="47.697864230722189" lon="12.03688720241189">
        <ele>1519.029999999999973</ele>
        <time>2015-02-15T09:55:45Z</time>
      </trkpt>
      <trkpt lat="47.697948720306158" lon="12.036937410011888">
        <ele>1522.339999999999918</ele>
        <time>2015-02-15T09:55:58Z</time>
      </trkpt>
      <trkpt lat="47.698054248467088" lon="12.036999268457294">
        <ele>1525.349999999999909</ele>
        <time>2015-02-15T09:56:13Z</time>
      </trkpt>
      <trkpt lat="47.698099678382277" lon="12.037005554884672">
        <ele>1527.009999999999991</ele>
        <time>2015-02-15T09:56:30Z</time>
      </trkpt>
      <trkpt lat="47.69807243719697" lon="12.036842694506049">
        <ele>1530.720000000000027</ele>
        <time>2015-02-15T09:56:46Z</time>
      </trkpt>
      <trkpt lat="47.698055421933532" lon="12.036719229072332">
        <ele>1533.809999999999945</ele>
        <time>2015-02-15T09:56:59Z</time>
      </trkpt>
      <trkpt lat="47.698059193789959" lon="12.036613281816244">
        <ele>1536.930000000000064</ele>
        <time>2015-02-15T09:57:12Z</time>
      </trkpt>
      <trkpt lat="47.698059109970927" lon="12.036623256281018">
        <ele>1536.539999999999964</ele>
        <time>2015-02-15T09:57:30Z</time>
      </trkpt>
      <trkpt lat="47.698042932897806" lon="12.036613365635276">
        <ele>1536.970000000000027</ele>
        <time>2015-02-15T09:57:53Z</time>
      </trkpt>
      <trkpt lat="47.698059026151896" lon="12.036620825529099">
        <ele>1536.950000000000045</ele>
        <time>2015-02-15T09:58:11Z</time>
      </trkpt>
      <trkpt lat="47.698151059448719" lon="12.036651000380516">
        <ele>1540.440000000000055</ele>
        <time>2015-02-15T09:58:25Z</time>
      </trkpt>
      <trkpt lat="47.698251558467746" lon="12.036697184666991">
        <ele>1543.569999999999936</ele>
        <time>2015-02-15T09:58:40Z</time>
      </trkpt>
      <trkpt lat="47.69835876300931" lon="12.036749236285686">
        <ele>1546.829999999999927</ele>
        <time>2015-02-15T09:58:56Z</time>
      </trkpt>
      <trkpt lat="47.698433110490441" lon="12.036787625402212">
        <ele>1549.900000000000091</ele>
        <time>2015-02-15T09:59:10Z</time>
      </trkpt>
      <trkpt lat="47.698511146008968" lon="12.036828109994531">
        <ele>1552.960000000000036</ele>
        <time>2015-02-15T09:59:24Z</time>
      </trkpt>
      <trkpt lat="47.698605610057712" lon="12.036888040602207">
        <ele>1556.049999999999955</ele>
        <time>2015-02-15T09:59:40Z</time>
      </trkpt>
      <trkpt lat="47.698689429089427" lon="12.036935398355126">
        <ele>1559.259999999999991</ele>
        <time>2015-02-15T09:59:55Z</time>
      </trkpt>
      <trkpt lat="47.698748353868723" lon="12.036958616226912">
        <ele>1561.5</ele>
        <time>2015-02-15T10:00:17Z</time>
      </trkpt>
      <trkpt lat="47.698739636689425" lon="12.03680707141757">
        <ele>1564.539999999999964</ele>
        <time>2015-02-15T10:00:34Z</time>
      </trkpt>
      <trkpt lat="47.69873846322298" lon="12.036677738651633">
        <ele>1567.779999999999973</ele>
        <time>2015-02-15T10:00:48Z</time>
      </trkpt>
      <trkpt lat="47.698727315291762" lon="12.036512028425932">
        <ele>1570.720000000000027</ele>
        <time>2015-02-15T10:01:09Z</time>
      </trkpt>
      <trkpt lat="47.698725387454033" lon="12.036499036476016">
        <ele>1571.3599999999999</ele>
        <time>2015-02-15T10:01:11Z</time>
      </trkpt>
      <trkpt lat="47.698769979178905" lon="12.036511525511742">
        <ele>1573.769999999999982</ele>
        <time>2015-02-15T10:01:31Z</time>
      </trkpt>
      <trkpt lat="47.698795795440674" lon="12.036525271832943">
        <ele>1575.599999999999909</ele>
        <time>2015-02-15T10:01:48Z</time>
      </trkpt>
      <trkpt lat="47.69877701997757" lon="12.036485876888037">
        <ele>1567.369999999999891</ele>
        <time>2015-02-15T10:02:04Z</time>
      </trkpt>
      <trkpt lat="47.698769643902779" lon="12.036486212164164">
        <ele>1580.039999999999964</ele>
        <time>2015-02-15T10:02:05Z</time>
      </trkpt>
      <trkpt lat="47.698768470436335" lon="12.03648554161191">
        <ele>1575.630000000000109</ele>
        <time>2015-02-15T10:02:06Z</time>
      </trkpt>
      <trkpt lat="47.698769895359874" lon="12.036491073668003">
        <ele>1573.289999999999964</ele>
        <time>2015-02-15T10:02:08Z</time>
      </trkpt>
      <trkpt lat="47.698753634467721" lon="12.036488642916083">
        <ele>1573.589999999999918</ele>
        <time>2015-02-15T10:02:28Z</time>
      </trkpt>
      <trkpt lat="47.69876922480762" lon="12.0365309715271">
        <ele>1575.119999999999891</ele>
        <time>2015-02-15T10:02:51Z</time>
      </trkpt>
      <trkpt lat="47.698802836239338" lon="12.036484787240624">
        <ele>1576.799999999999955</ele>
        <time>2015-02-15T10:03:08Z</time>
      </trkpt>
      <trkpt lat="47.698865029960871" lon="12.036482691764832">
        <ele>1580.119999999999891</ele>
        <time>2015-02-15T10:03:27Z</time>
      </trkpt>
      <trkpt lat="47.69889822229743" lon="12.036563912406564">
        <ele>1581.960000000000036</ele>
        <time>2015-02-15T10:03:47Z</time>
      </trkpt>
      <trkpt lat="47.698876932263374" lon="12.036575395613909">
        <ele>1579.809999999999945</ele>
        <time>2015-02-15T10:03:55Z</time>
      </trkpt>
      <trkpt lat="47.698879195377231" lon="12.036597523838282">
        <ele>1579</ele>
        <time>2015-02-15T10:04:16Z</time>
      </trkpt>
      <trkpt lat="47.69888355396688" lon="12.036586292088032">
        <ele>1579.440000000000055</ele>
        <time>2015-02-15T10:04:47Z</time>
      </trkpt>
      <trkpt lat="47.698873663321137" lon="12.036549327895045">
        <ele>1579.950000000000045</ele>
        <time>2015-02-15T10:05:11Z</time>
      </trkpt>
      <trkpt lat="47.698875423520803" lon="12.036552429199219">
        <ele>1580.420000000000073</ele>
        <time>2015-02-15T10:05:31Z</time>
      </trkpt>
      <trkpt lat="47.698870562016964" lon="12.036541616544127">
        <ele>1580.460000000000036</ele>
        <time>2015-02-15T10:05:53Z</time>
      </trkpt>
      <trkpt lat="47.698887325823307" lon="12.03652611002326">
        <ele>1581.1099999999999</ele>
        <time>2015-02-15T10:06:13Z</time>
      </trkpt>
      <trkpt lat="47.698888666927814" lon="12.036543125286698">
        <ele>1580.630000000000109</ele>
        <time>2015-02-15T10:06:39Z</time>
      </trkpt>
      <trkpt lat="47.698896378278732" lon="12.036541365087032">
        <ele>1581.019999999999982</ele>
        <time>2015-02-15T10:06:57Z</time>
      </trkpt>
      <trkpt lat="47.698922697454691" lon="12.036580760031939">
        <ele>1581.369999999999891</ele>
        <time>2015-02-15T10:07:18Z</time>
      </trkpt>
      <trkpt lat="47.698949603363872" lon="12.036591153591871">
        <ele>1582.579999999999927</ele>
        <time>2015-02-15T10:07:36Z</time>
      </trkpt>
      <trkpt lat="47.6990120485425" lon="12.03645377419889">
        <ele>1585.319999999999936</ele>
        <time>2015-02-15T10:07:57Z</time>
      </trkpt>
      <trkpt lat="47.699099304154515" lon="12.036438770592213">
        <ele>1588.3599999999999</ele>
        <time>2015-02-15T10:08:12Z</time>
      </trkpt>
      <trkpt lat="47.699148003011942" lon="12.036507921293378">
        <ele>1591.25</ele>
        <time>2015-02-15T10:08:28Z</time>
      </trkpt>
      <trkpt lat="47.699157223105431" lon="12.03650364652276">
        <ele>1590.730000000000018</ele>
        <time>2015-02-15T10:08:57Z</time>
      </trkpt>
      <trkpt lat="47.699235761538148" lon="12.036543963477015">
        <ele>1593.490000000000009</ele>
        <time>2015-02-15T10:09:25Z</time>
      </trkpt>
      <trkpt lat="47.699300553649664" lon="12.036526948213577">
        <ele>1596.559999999999945</ele>
        <time>2015-02-15T10:09:39Z</time>
      </trkpt>
      <trkpt lat="47.699338439851999" lon="12.036535078659654">
        <ele>1599.740000000000009</ele>
        <time>2015-02-15T10:09:49Z</time>
      </trkpt>
      <trkpt lat="47.699413960799575" lon="12.0365050714463">
        <ele>1602.990000000000009</ele>
        <time>2015-02-15T10:10:04Z</time>
      </trkpt>
      <trkpt lat="47.699426030740142" lon="12.036488307639956">
        <ele>1604.170000000000073</ele>
        <time>2015-02-15T10:10:08Z</time>
      </trkpt>
      <trkpt lat="47.699477663263679" lon="12.03656324185431">
        <ele>1605.630000000000109</ele>
        <time>2015-02-15T10:10:28Z</time>
      </trkpt>
      <trkpt lat="47.699547484517097" lon="12.036537425592542">
        <ele>1608.690000000000055</ele>
        <time>2015-02-15T10:10:42Z</time>
      </trkpt>
      <trkpt lat="47.699594171717763" lon="12.0364894811064">
        <ele>1612.119999999999891</ele>
        <time>2015-02-15T10:10:56Z</time>
      </trkpt>
      <trkpt lat="47.699645217508078" lon="12.036574808880687">
        <ele>1615.569999999999936</ele>
        <time>2015-02-15T10:11:12Z</time>
      </trkpt>
      <trkpt lat="47.6996751409024" lon="12.036588303744793">
        <ele>1616.329999999999927</ele>
        <time>2015-02-15T10:11:32Z</time>
      </trkpt>
      <trkpt lat="47.699733898043633" lon="12.036587214097381">
        <ele>1619.420000000000073</ele>
        <time>2015-02-15T10:11:47Z</time>
      </trkpt>
      <trkpt lat="47.699805395677686" lon="12.036618981510401">
        <ele>1622.430000000000064</ele>
        <time>2015-02-15T10:11:59Z</time>
      </trkpt>
      <trkpt lat="47.699869768694043" lon="12.036700788885355">
        <ele>1625.490000000000009</ele>
        <time>2015-02-15T10:12:14Z</time>
      </trkpt>
      <trkpt lat="47.69992240704596" lon="12.036702381446958">
        <ele>1627.819999999999936</ele>
        <time>2015-02-15T10:12:36Z</time>
      </trkpt>
      <trkpt lat="47.699957946315408" lon="12.036553854122758">
        <ele>1630.829999999999927</ele>
        <time>2015-02-15T10:12:53Z</time>
      </trkpt>
      <trkpt lat="47.699994407594204" lon="12.036475315690041">
        <ele>1634.160000000000082</ele>
        <time>2015-02-15T10:13:08Z</time>
      </trkpt>
      <trkpt lat="47.699994994327426" lon="12.036495599895716">
        <ele>1634.039999999999964</ele>
        <time>2015-02-15T10:13:30Z</time>
      </trkpt>
      <trkpt lat="47.700068335980177" lon="12.036587800830603">
        <ele>1637.119999999999891</ele>
        <time>2015-02-15T10:13:50Z</time>
      </trkpt>
      <trkpt lat="47.700132792815566" lon="12.036610180512071">
        <ele>1639</ele>
        <time>2015-02-15T10:14:13Z</time>
      </trkpt>
      <trkpt lat="47.700173025950789" lon="12.03663993626833">
        <ele>1640.519999999999982</ele>
        <time>2015-02-15T10:14:37Z</time>
      </trkpt>
      <trkpt lat="47.700155591592193" lon="12.036593332886696">
        <ele>1641.599999999999909</ele>
        <time>2015-02-15T10:14:53Z</time>
      </trkpt>
      <trkpt lat="47.700203955173492" lon="12.036501299589872">
        <ele>1645.259999999999991</ele>
        <time>2015-02-15T10:15:09Z</time>
      </trkpt>
      <trkpt lat="47.700276123359799" lon="12.036612192168832">
        <ele>1648.539999999999964</ele>
        <time>2015-02-15T10:15:27Z</time>
      </trkpt>
      <trkpt lat="47.700320882722735" lon="12.036571204662323">
        <ele>1650.789999999999964</ele>
        <time>2015-02-15T10:15:43Z</time>
      </trkpt>
      <trkpt lat="47.700371509417892" lon="12.0364860445261">
        <ele>1653.910000000000082</ele>
        <time>2015-02-15T10:15:56Z</time>
      </trkpt>
      <trkpt lat="47.700390284880996" lon="12.036479339003563">
        <ele>1655.650000000000091</ele>
        <time>2015-02-15T10:16:17Z</time>
      </trkpt>
      <trkpt lat="47.700444180518389" lon="12.03655150718987">
        <ele>1658.690000000000055</ele>
        <time>2015-02-15T10:16:31Z</time>
      </trkpt>
      <trkpt lat="47.700482485815883" lon="12.036594254896045">
        <ele>1660.269999999999982</ele>
        <time>2015-02-15T10:16:57Z</time>
      </trkpt>
      <trkpt lat="47.700517438352108" lon="12.036649407818913">
        <ele>1662.049999999999955</ele>
        <time>2015-02-15T10:17:24Z</time>
      </trkpt>
      <trkpt lat="47.700586002320051" lon="12.036720737814903">
        <ele>1665.059999999999945</ele>
        <time>2015-02-15T10:17:40Z</time>
      </trkpt>
      <trkpt lat="47.700685244053602" lon="12.036725012585521">
        <ele>1668.349999999999909</ele>
        <time>2015-02-15T10:18:02Z</time>
      </trkpt>
      <trkpt lat="47.700710138306022" lon="12.036728449165821">
        <ele>1669.430000000000064</ele>
        <time>2015-02-15T10:18:22Z</time>
      </trkpt>
      <trkpt lat="47.700742157176137" lon="12.03673574142158">
        <ele>1670.549999999999955</ele>
        <time>2015-02-15T10:18:48Z</time>
      </trkpt>
      <trkpt lat="47.700865287333727" lon="12.036799276247621">
        <ele>1672.170000000000073</ele>
        <time>2015-02-15T10:19:07Z</time>
      </trkpt>
      <trkpt lat="47.700913399457932" lon="12.036839677020907">
        <ele>1672.849999999999909</ele>
        <time>2015-02-15T10:19:12Z</time>
      </trkpt>
      <trkpt lat="47.700928905978799" lon="12.036862056702375">
        <ele>1672.180000000000064</ele>
        <time>2015-02-15T10:19:14Z</time>
      </trkpt>
      <trkpt lat="47.70107164978981" lon="12.037012595683336">
        <ele>1672.1099999999999</ele>
        <time>2015-02-15T10:19:30Z</time>
      </trkpt>
      <trkpt lat="47.701185224577785" lon="12.037170846015215">
        <ele>1673.279999999999973</ele>
        <time>2015-02-15T10:19:45Z</time>
      </trkpt>
      <trkpt lat="47.701256889849901" lon="12.037259610369802">
        <ele>1673.8900000000001</ele>
        <time>2015-02-15T10:19:55Z</time>
      </trkpt>
      <trkpt lat="47.701310953125358" lon="12.037314595654607">
        <ele>1675.269999999999982</ele>
        <time>2015-02-15T10:20:08Z</time>
      </trkpt>
      <trkpt lat="47.701312880963087" lon="12.037339741364121">
        <ele>1674.579999999999927</ele>
        <time>2015-02-15T10:20:39Z</time>
      </trkpt>
      <trkpt lat="47.701310617849231" lon="12.037340328097343">
        <ele>1674.420000000000073</ele>
        <time>2015-02-15T10:21:06Z</time>
      </trkpt>
      <trkpt lat="47.701316485181451" lon="12.037170175462961">
        <ele>1676.730000000000018</ele>
        <time>2015-02-15T10:21:21Z</time>
      </trkpt>
      <trkpt lat="47.701279688626528" lon="12.036995915696025">
        <ele>1678.710000000000036</ele>
        <time>2015-02-15T10:21:39Z</time>
      </trkpt>
      <trkpt lat="47.701245993375778" lon="12.036857111379504">
        <ele>1680.710000000000036</ele>
        <time>2015-02-15T10:21:57Z</time>
      </trkpt>
      <trkpt lat="47.701194444671273" lon="12.036692826077342">
        <ele>1682.950000000000045</ele>
        <time>2015-02-15T10:22:13Z</time>
      </trkpt>
      <trkpt lat="47.70120550878346" lon="12.036546813324094">
        <ele>1686.240000000000009</ele>
        <time>2015-02-15T10:22:28Z</time>
      </trkpt>
      <trkpt lat="47.701217327266932" lon="12.036420330405235">
        <ele>1689.630000000000109</ele>
        <time>2015-02-15T10:22:42Z</time>
      </trkpt>
      <trkpt lat="47.701214393600821" lon="12.036408511921763">
        <ele>1689.569999999999936</ele>
        <time>2015-02-15T10:23:03Z</time>
      </trkpt>
      <trkpt lat="47.701146835461259" lon="12.036402896046638">
        <ele>1692.309999999999945</ele>
        <time>2015-02-15T10:23:20Z</time>
      </trkpt>
      <trkpt lat="47.701075421646237" lon="12.036342713981867">
        <ele>1694.759999999999991</ele>
        <time>2015-02-15T10:23:40Z</time>
      </trkpt>
      <trkpt lat="47.701102159917355" lon="12.036237688735127">
        <ele>1697.799999999999955</ele>
        <time>2015-02-15T10:23:53Z</time>
      </trkpt>
      <trkpt lat="47.701045833528042" lon="12.036126125603914">
        <ele>1700.880000000000109</ele>
        <time>2015-02-15T10:24:08Z</time>
      </trkpt>
      <trkpt lat="47.700999649241567" lon="12.036033924669027">
        <ele>1702.6099999999999</ele>
        <time>2015-02-15T10:24:33Z</time>
      </trkpt>
      <trkpt lat="47.701099812984467" lon="12.036010287702084">
        <ele>1705.869999999999891</ele>
        <time>2015-02-15T10:24:53Z</time>
      </trkpt>
      <trkpt lat="47.701196791604161" lon="12.035983884707093">
        <ele>1708.910000000000082</ele>
        <time>2015-02-15T10:25:08Z</time>
      </trkpt>
      <trkpt lat="47.701240042224526" lon="12.03583175316453">
        <ele>1712.089999999999918</ele>
        <time>2015-02-15T10:25:25Z</time>
      </trkpt>
      <trkpt lat="47.701288238167763" lon="12.035637125372887">
        <ele>1715.130000000000109</ele>
        <time>2015-02-15T10:25:46Z</time>
      </trkpt>
      <trkpt lat="47.701315730810165" lon="12.035541068762541">
        <ele>1717.079999999999927</ele>
        <time>2015-02-15T10:26:04Z</time>
      </trkpt>
      <trkpt lat="47.7013242803514" lon="12.03553419560194">
        <ele>1716.220000000000027</ele>
        <time>2015-02-15T10:26:25Z</time>
      </trkpt>
      <trkpt lat="47.701321765780449" lon="12.035548696294427">
        <ele>1717</ele>
        <time>2015-02-15T10:26:47Z</time>
      </trkpt>
      <trkpt lat="47.70133157260716" lon="12.035542745143175">
        <ele>1716.490000000000009</ele>
        <time>2015-02-15T10:27:16Z</time>
      </trkpt>
      <trkpt lat="47.701345402747393" lon="12.035501422360539">
        <ele>1717.730000000000018</ele>
        <time>2015-02-15T10:27:31Z</time>
      </trkpt>
      <trkpt lat="47.701333332806826" lon="12.035438474267721">
        <ele>1718.450000000000045</ele>
        <time>2015-02-15T10:27:47Z</time>
      </trkpt>
      <trkpt lat="47.701325202360749" lon="12.03544526360929">
        <ele>1717.3599999999999</ele>
        <time>2015-02-15T10:27:52Z</time>
      </trkpt>
      <trkpt lat="47.701338278129697" lon="12.035453896969557">
        <ele>1718.410000000000082</ele>
        <time>2015-02-15T10:28:18Z</time>
      </trkpt>
      <trkpt lat="47.701348923146725" lon="12.035468481481075">
        <ele>1718.190000000000055</ele>
        <time>2015-02-15T10:28:56Z</time>
      </trkpt>
      <trkpt lat="47.701341798529029" lon="12.035465212538838">
        <ele>1721.230000000000018</ele>
        <time>2015-02-15T10:29:25Z</time>
      </trkpt>
      <trkpt lat="47.701339870691299" lon="12.035463619977236">
        <ele>1716.869999999999891</ele>
        <time>2015-02-15T10:29:26Z</time>
      </trkpt>
      <trkpt lat="47.701339200139046" lon="12.035482982173562">
        <ele>1712.319999999999936</ele>
        <time>2015-02-15T10:29:33Z</time>
      </trkpt>
      <trkpt lat="47.701340625062585" lon="12.035485412925482">
        <ele>1719.630000000000109</ele>
        <time>2015-02-15T10:29:34Z</time>
      </trkpt>
      <trkpt lat="47.701340205967426" lon="12.035487927496433">
        <ele>1717.289999999999964</ele>
        <time>2015-02-15T10:30:11Z</time>
      </trkpt>
      <trkpt lat="47.701337523758411" lon="12.035488011315465">
        <ele>1717.009999999999991</ele>
        <time>2015-02-15T10:30:55Z</time>
      </trkpt>
      <trkpt lat="47.701334757730365" lon="12.035495387390256">
        <ele>1717.460000000000036</ele>
        <time>2015-02-15T10:31:37Z</time>
      </trkpt>
      <trkpt lat="47.701335176825523" lon="12.035472169518471">
        <ele>1717.279999999999973</ele>
        <time>2015-02-15T10:32:14Z</time>
      </trkpt>
      <trkpt lat="47.701346492394805" lon="12.035475187003613">
        <ele>1717.910000000000082</ele>
        <time>2015-02-15T10:32:45Z</time>
      </trkpt>
      <trkpt lat="47.701347582042217" lon="12.035471498966217">
        <ele>1717.269999999999982</ele>
        <time>2015-02-15T10:33:19Z</time>
      </trkpt>
      <trkpt lat="47.701347749680281" lon="12.035469403490424">
        <ele>1717</ele>
        <time>2015-02-15T10:33:58Z</time>
      </trkpt>
      <trkpt lat="47.701350850984454" lon="12.035474600270391">
        <ele>1716.869999999999891</ele>
        <time>2015-02-15T10:34:40Z</time>
      </trkpt>
      <trkpt lat="47.701352024450898" lon="12.035475019365549">
        <ele>1717.400000000000091</ele>
        <time>2015-02-15T10:35:26Z</time>
      </trkpt>
      <trkpt lat="47.701344396919012" lon="12.035474600270391">
        <ele>1716.740000000000009</ele>
        <time>2015-02-15T10:36:00Z</time>
      </trkpt>
      <trkpt lat="47.701350850984454" lon="12.035474935546517">
        <ele>1718.559999999999945</ele>
        <time>2015-02-15T10:36:26Z</time>
      </trkpt>
      <trkpt lat="47.701348587870598" lon="12.035485245287418">
        <ele>1718.099999999999909</ele>
        <time>2015-02-15T10:36:48Z</time>
      </trkpt>
      <trkpt lat="47.701360825449228" lon="12.035546852275729">
        <ele>1716</ele>
        <time>2015-02-15T10:37:05Z</time>
      </trkpt>
      <trkpt lat="47.70134431309998" lon="12.035550372675061">
        <ele>1714.869999999999891</ele>
        <time>2015-02-15T10:37:14Z</time>
      </trkpt>
      <trkpt lat="47.701359149068594" lon="12.035535536706448">
        <ele>1715.269999999999982</ele>
        <time>2015-02-15T10:37:38Z</time>
      </trkpt>
      <trkpt lat="47.70135797560215" lon="12.035551881417632">
        <ele>1716.329999999999927</ele>
        <time>2015-02-15T10:37:56Z</time>
      </trkpt>
      <trkpt lat="47.701347749680281" lon="12.035558084025979">
        <ele>1715.8900000000001</ele>
        <time>2015-02-15T10:38:21Z</time>
      </trkpt>
      <trkpt lat="47.701323861256242" lon="12.035555569455028">
        <ele>1715.410000000000082</ele>
        <time>2015-02-15T10:39:27Z</time>
      </trkpt>
      <trkpt lat="47.701333332806826" lon="12.035561269149184">
        <ele>1715.730000000000018</ele>
        <time>2015-02-15T10:40:28Z</time>
      </trkpt>
      <trkpt lat="47.70135311409831" lon="12.035549618303776">
        <ele>1716.6099999999999</ele>
        <time>2015-02-15T10:41:13Z</time>
      </trkpt>
      <trkpt lat="47.701351940631866" lon="12.035541906952858">
        <ele>1716.509999999999991</ele>
        <time>2015-02-15T10:41:42Z</time>
      </trkpt>
      <trkpt lat="47.701345402747393" lon="12.035544840618968">
        <ele>1715.960000000000036</ele>
        <time>2015-02-15T10:42:01Z</time>
      </trkpt>
      <trkpt lat="47.701346073299646" lon="12.035551043227315">
        <ele>1715.769999999999982</ele>
        <time>2015-02-15T10:42:26Z</time>
      </trkpt>
      <trkpt lat="47.701353533193469" lon="12.035550456494093">
        <ele>1716.119999999999891</ele>
        <time>2015-02-15T10:42:57Z</time>
      </trkpt>
      <trkpt lat="47.701347498223186" lon="12.035572752356529">
        <ele>1715.420000000000073</ele>
        <time>2015-02-15T10:43:13Z</time>
      </trkpt>
      <trkpt lat="47.701348168775439" lon="12.035572165623307">
        <ele>1716.759999999999991</ele>
        <time>2015-02-15T10:43:16Z</time>
      </trkpt>
      <trkpt lat="47.701340708881617" lon="12.035571997985244">
        <ele>1716.1400000000001</ele>
        <time>2015-02-15T10:43:34Z</time>
      </trkpt>
      <trkpt lat="47.701333584263921" lon="12.035569567233324">
        <ele>1715.849999999999909</ele>
        <time>2015-02-15T10:44:02Z</time>
      </trkpt>
      <trkpt lat="47.701331656426191" lon="12.035569734871387">
        <ele>1715.1099999999999</ele>
        <time>2015-02-15T10:44:17Z</time>
      </trkpt>
      <trkpt lat="47.701333835721016" lon="12.035570573061705">
        <ele>1717.299999999999955</ele>
        <time>2015-02-15T10:44:24Z</time>
      </trkpt>
      <trkpt lat="47.701332829892635" lon="12.035577362403274">
        <ele>1715.990000000000009</ele>
        <time>2015-02-15T10:44:28Z</time>
      </trkpt>
      <trkpt lat="47.701305588707328" lon="12.035645758733153">
        <ele>1713.980000000000018</ele>
        <time>2015-02-15T10:44:31Z</time>
      </trkpt>
      <trkpt lat="47.701315982267261" lon="12.035669730976224">
        <ele>1713.769999999999982</ele>
        <time>2015-02-15T10:44:32Z</time>
      </trkpt>
      <trkpt lat="47.701334757730365" lon="12.035690099000931">
        <ele>1713.400000000000091</ele>
        <time>2015-02-15T10:44:37Z</time>
      </trkpt>
      <trkpt lat="47.701326543465257" lon="12.035846170037985">
        <ele>1709.410000000000082</ele>
        <time>2015-02-15T10:44:42Z</time>
      </trkpt>
      <trkpt lat="47.701305840164423" lon="12.035878524184227">
        <ele>1709.450000000000045</ele>
        <time>2015-02-15T10:44:43Z</time>
      </trkpt>
      <trkpt lat="47.701226966455579" lon="12.035987908020616">
        <ele>1709.349999999999909</ele>
        <time>2015-02-15T10:44:53Z</time>
      </trkpt>
      <trkpt lat="47.70121430978179" lon="12.035999391227961">
        <ele>1708.710000000000036</ele>
        <time>2015-02-15T10:45:15Z</time>
      </trkpt>
      <trkpt lat="47.701190588995814" lon="12.036016490310431">
        <ele>1708.410000000000082</ele>
        <time>2015-02-15T10:45:16Z</time>
      </trkpt>
      <trkpt lat="47.701156474649906" lon="12.036028224974871">
        <ele>1707.900000000000091</ele>
        <time>2015-02-15T10:45:17Z</time>
      </trkpt>
      <trkpt lat="47.701125796884298" lon="12.036051359027624">
        <ele>1703.8900000000001</ele>
        <time>2015-02-15T10:45:18Z</time>
      </trkpt>
      <trkpt lat="47.701117917895317" lon="12.036094106733799">
        <ele>1703.920000000000073</ele>
        <time>2015-02-15T10:45:19Z</time>
      </trkpt>
      <trkpt lat="47.701118756085634" lon="12.036149762570858">
        <ele>1701.720000000000027</ele>
        <time>2015-02-15T10:45:20Z</time>
      </trkpt>
      <trkpt lat="47.701103584840894" lon="12.036188989877701">
        <ele>1700.279999999999973</ele>
        <time>2015-02-15T10:45:21Z</time>
      </trkpt>
      <trkpt lat="47.701076176017523" lon="12.036195192486048">
        <ele>1699.490000000000009</ele>
        <time>2015-02-15T10:45:22Z</time>
      </trkpt>
      <trkpt lat="47.701055640354753" lon="12.036191252991557">
        <ele>1699.1099999999999</ele>
        <time>2015-02-15T10:45:23Z</time>
      </trkpt>
      <trkpt lat="47.701032506301999" lon="12.036191085353494">
        <ele>1697.759999999999991</ele>
        <time>2015-02-15T10:45:25Z</time>
      </trkpt>
      <trkpt lat="47.701024292036891" lon="12.036201227456331">
        <ele>1697.839999999999918</ele>
        <time>2015-02-15T10:45:43Z</time>
      </trkpt>
      <trkpt lat="47.70100861787796" lon="12.036212710663676">
        <ele>1697.950000000000045</ele>
        <time>2015-02-15T10:45:44Z</time>
      </trkpt>
      <trkpt lat="47.700980706140399" lon="12.036228301003575">
        <ele>1696.6099999999999</ele>
        <time>2015-02-15T10:45:45Z</time>
      </trkpt>
      <trkpt lat="47.700950279831886" lon="12.036230228841305">
        <ele>1696.75</ele>
        <time>2015-02-15T10:45:46Z</time>
      </trkpt>
      <trkpt lat="47.70088154822588" lon="12.036236682906747">
        <ele>1695.200000000000045</ele>
        <time>2015-02-15T10:45:48Z</time>
      </trkpt>
      <trkpt lat="47.700837543234229" lon="12.036356711760163">
        <ele>1689.6400000000001</ele>
        <time>2015-02-15T10:45:50Z</time>
      </trkpt>
      <trkpt lat="47.700837207958102" lon="12.036464419215918">
        <ele>1685.509999999999991</ele>
        <time>2015-02-15T10:45:52Z</time>
      </trkpt>
      <trkpt lat="47.700806278735399" lon="12.036479422822595">
        <ele>1685.8900000000001</ele>
        <time>2015-02-15T10:45:53Z</time>
      </trkpt>
      <trkpt lat="47.700775936245918" lon="12.036502389237285">
        <ele>1680.819999999999936</ele>
        <time>2015-02-15T10:45:54Z</time>
      </trkpt>
      <trkpt lat="47.700761100277305" lon="12.036549160256982">
        <ele>1681.269999999999982</ele>
        <time>2015-02-15T10:45:55Z</time>
      </trkpt>
      <trkpt lat="47.700717095285654" lon="12.036578329280019">
        <ele>1678.490000000000009</ele>
        <time>2015-02-15T10:45:57Z</time>
      </trkpt>
      <trkpt lat="47.700697733089328" lon="12.036564415320754">
        <ele>1674.920000000000073</ele>
        <time>2015-02-15T10:45:58Z</time>
      </trkpt>
      <trkpt lat="47.700692201033235" lon="12.036558128893375">
        <ele>1675.829999999999927</ele>
        <time>2015-02-15T10:45:59Z</time>
      </trkpt>
      <trkpt lat="47.700689937919378" lon="12.036559218540788">
        <ele>1674.710000000000036</ele>
        <time>2015-02-15T10:46:00Z</time>
      </trkpt>
      <trkpt lat="47.700618524104357" lon="12.03656961210072">
        <ele>1671.170000000000073</ele>
        <time>2015-02-15T10:46:03Z</time>
      </trkpt>
      <trkpt lat="47.700595809146762" lon="12.036622418090701">
        <ele>1667.809999999999945</ele>
        <time>2015-02-15T10:46:04Z</time>
      </trkpt>
      <trkpt lat="47.700581643730402" lon="12.036665417253971">
        <ele>1668.299999999999955</ele>
        <time>2015-02-15T10:46:05Z</time>
      </trkpt>
      <trkpt lat="47.700539818033576" lon="12.036660807207227">
        <ele>1664.6099999999999</ele>
        <time>2015-02-15T10:46:07Z</time>
      </trkpt>
      <trkpt lat="47.700480725616217" lon="12.036639098078012">
        <ele>1659.759999999999991</ele>
        <time>2015-02-15T10:46:09Z</time>
      </trkpt>
      <trkpt lat="47.700396068394184" lon="12.036701962351799">
        <ele>1654.529999999999973</ele>
        <time>2015-02-15T10:46:12Z</time>
      </trkpt>
      <trkpt lat="47.700360612943769" lon="12.036683689802885">
        <ele>1651.470000000000027</ele>
        <time>2015-02-15T10:46:13Z</time>
      </trkpt>
      <trkpt lat="47.700326582416892" lon="12.036715960130095">
        <ele>1649.910000000000082</ele>
        <time>2015-02-15T10:46:15Z</time>
      </trkpt>
      <trkpt lat="47.700302861630917" lon="12.036792822182178">
        <ele>1647.900000000000091</ele>
        <time>2015-02-15T10:46:18Z</time>
      </trkpt>
      <trkpt lat="47.700279140844941" lon="12.03680170699954">
        <ele>1644.8900000000001</ele>
        <time>2015-02-15T10:46:19Z</time>
      </trkpt>
      <trkpt lat="47.700259359553456" lon="12.036864571273327">
        <ele>1641.589999999999918</ele>
        <time>2015-02-15T10:46:21Z</time>
      </trkpt>
      <trkpt lat="47.700226167216897" lon="12.036922657862306">
        <ele>1638.480000000000018</ele>
        <time>2015-02-15T10:46:23Z</time>
      </trkpt>
      <trkpt lat="47.700182078406215" lon="12.03696389682591">
        <ele>1634.230000000000018</ele>
        <time>2015-02-15T10:46:25Z</time>
      </trkpt>
      <trkpt lat="47.700161039829254" lon="12.037024162709713">
        <ele>1633.369999999999891</ele>
        <time>2015-02-15T10:46:27Z</time>
      </trkpt>
      <trkpt lat="47.700135307386518" lon="12.037027096375823">
        <ele>1629.829999999999927</ele>
        <time>2015-02-15T10:46:28Z</time>
      </trkpt>
      <trkpt lat="47.700090715661645" lon="12.037000693380833">
        <ele>1627.440000000000055</ele>
        <time>2015-02-15T10:46:31Z</time>
      </trkpt>
      <trkpt lat="47.700101612135768" lon="12.037013350054622">
        <ele>1627.660000000000082</ele>
        <time>2015-02-15T10:47:04Z</time>
      </trkpt>
      <trkpt lat="47.700107982382178" lon="12.037012679502368">
        <ele>1627.680000000000064</ele>
        <time>2015-02-15T10:47:41Z</time>
      </trkpt>
      <trkpt lat="47.700107814744115" lon="12.037011254578829">
        <ele>1628.1400000000001</ele>
        <time>2015-02-15T10:48:06Z</time>
      </trkpt>
      <trkpt lat="47.700104461982846" lon="12.037018965929747">
        <ele>1627.819999999999936</ele>
        <time>2015-02-15T10:48:47Z</time>
      </trkpt>
      <trkpt lat="47.700110832229257" lon="12.037012930959463">
        <ele>1628.150000000000091</ele>
        <time>2015-02-15T10:49:17Z</time>
      </trkpt>
      <trkpt lat="47.700113765895367" lon="12.036998681724072">
        <ele>1627.900000000000091</ele>
        <time>2015-02-15T10:49:56Z</time>
      </trkpt>
      <trkpt lat="47.700033383443952" lon="12.037060791626573">
        <ele>1621.75</ele>
        <time>2015-02-15T10:50:01Z</time>
      </trkpt>
      <trkpt lat="47.699999436736107" lon="12.037052074447274">
        <ele>1621.680000000000064</ele>
        <time>2015-02-15T10:50:02Z</time>
      </trkpt>
      <trkpt lat="47.699966495856643" lon="12.037022318691015">
        <ele>1619.849999999999909</ele>
        <time>2015-02-15T10:50:03Z</time>
      </trkpt>
      <trkpt lat="47.69990237429738" lon="12.036974960938096">
        <ele>1617.049999999999955</ele>
        <time>2015-02-15T10:50:05Z</time>
      </trkpt>
      <trkpt lat="47.699823500588536" lon="12.037066239863634">
        <ele>1614.980000000000018</ele>
        <time>2015-02-15T10:50:08Z</time>
      </trkpt>
      <trkpt lat="47.699787290766835" lon="12.037071688100696">
        <ele>1611.410000000000082</ele>
        <time>2015-02-15T10:50:09Z</time>
      </trkpt>
      <trkpt lat="47.699724091216922" lon="12.037019217386842">
        <ele>1608.279999999999973</ele>
        <time>2015-02-15T10:50:11Z</time>
      </trkpt>
      <trkpt lat="47.699691234156489" lon="12.037083087489009">
        <ele>1607.170000000000073</ele>
        <time>2015-02-15T10:50:13Z</time>
      </trkpt>
      <trkpt lat="47.699679750949144" lon="12.037122314795852">
        <ele>1600.450000000000045</ele>
        <time>2015-02-15T10:50:14Z</time>
      </trkpt>
      <trkpt lat="47.699656365439296" lon="12.037136983126402">
        <ele>1603.569999999999936</ele>
        <time>2015-02-15T10:50:15Z</time>
      </trkpt>
      <trkpt lat="47.69963700324297" lon="12.037142431363463">
        <ele>1598</ele>
        <time>2015-02-15T10:50:16Z</time>
      </trkpt>
      <trkpt lat="47.699604397639632" lon="12.037217197939754">
        <ele>1595.829999999999927</ele>
        <time>2015-02-15T10:50:19Z</time>
      </trkpt>
      <trkpt lat="47.699576485902071" lon="12.037218119949102">
        <ele>1592.779999999999973</ele>
        <time>2015-02-15T10:50:20Z</time>
      </trkpt>
      <trkpt lat="47.699557626619935" lon="12.037237482145429">
        <ele>1592.769999999999982</ele>
        <time>2015-02-15T10:50:21Z</time>
      </trkpt>
      <trkpt lat="47.699519069865346" lon="12.037306800484657">
        <ele>1586.720000000000027</ele>
        <time>2015-02-15T10:50:24Z</time>
      </trkpt>
      <trkpt lat="47.699492583051324" lon="12.037301016971469">
        <ele>1583.059999999999945</ele>
        <time>2015-02-15T10:50:26Z</time>
      </trkpt>
      <trkpt lat="47.699493337422609" lon="12.037297831848264">
        <ele>1588.880000000000109</ele>
        <time>2015-02-15T10:50:27Z</time>
      </trkpt>
      <trkpt lat="47.699492331594229" lon="12.037295736372471">
        <ele>1585.269999999999982</ele>
        <time>2015-02-15T10:50:28Z</time>
      </trkpt>
      <trkpt lat="47.699507335200906" lon="12.03729665838182">
        <ele>1585.970000000000027</ele>
        <time>2015-02-15T10:50:53Z</time>
      </trkpt>
      <trkpt lat="47.699521332979202" lon="12.037275368347764">
        <ele>1586.1099999999999</ele>
        <time>2015-02-15T10:51:47Z</time>
      </trkpt>
      <trkpt lat="47.699522757902741" lon="12.037275200709701">
        <ele>1586.269999999999982</ele>
        <time>2015-02-15T10:52:21Z</time>
      </trkpt>
      <trkpt lat="47.699526697397232" lon="12.037272937595844">
        <ele>1586.579999999999927</ele>
        <time>2015-02-15T10:53:07Z</time>
      </trkpt>
      <trkpt lat="47.699525356292725" lon="12.03728349879384">
        <ele>1586.259999999999991</ele>
        <time>2015-02-15T10:53:24Z</time>
      </trkpt>
      <trkpt lat="47.699445225298405" lon="12.03732842579484">
        <ele>1581.539999999999964</ele>
        <time>2015-02-15T10:53:29Z</time>
      </trkpt>
      <trkpt lat="47.699452601373196" lon="12.037395061925054">
        <ele>1580.339999999999918</ele>
        <time>2015-02-15T10:53:31Z</time>
      </trkpt>
      <trkpt lat="47.699415637180209" lon="12.037455160170794">
        <ele>1575.299999999999955</ele>
        <time>2015-02-15T10:53:33Z</time>
      </trkpt>
      <trkpt lat="47.699341792613268" lon="12.037485921755433">
        <ele>1573.690000000000055</ele>
        <time>2015-02-15T10:53:36Z</time>
      </trkpt>
      <trkpt lat="47.699343804270029" lon="12.037592036649585">
        <ele>1567.990000000000009</ele>
        <time>2015-02-15T10:53:39Z</time>
      </trkpt>
      <trkpt lat="47.699324190616608" lon="12.037602262571454">
        <ele>1567.75</ele>
        <time>2015-02-15T10:53:40Z</time>
      </trkpt>
      <trkpt lat="47.699279682710767" lon="12.037633694708347">
        <ele>1562.630000000000109</ele>
        <time>2015-02-15T10:53:42Z</time>
      </trkpt>
      <trkpt lat="47.699281275272369" lon="12.037672335281968">
        <ele>1562.680000000000064</ele>
        <time>2015-02-15T10:53:43Z</time>
      </trkpt>
      <trkpt lat="47.699274653568864" lon="12.03772958368063">
        <ele>1558.730000000000018</ele>
        <time>2015-02-15T10:53:45Z</time>
      </trkpt>
      <trkpt lat="47.699206257238984" lon="12.037735367193818">
        <ele>1553.839999999999918</ele>
        <time>2015-02-15T10:53:47Z</time>
      </trkpt>
      <trkpt lat="47.699193684384227" lon="12.03775892034173">
        <ele>1553.6400000000001</ele>
        <time>2015-02-15T10:53:48Z</time>
      </trkpt>
      <trkpt lat="47.69914791919291" lon="12.037858329713345">
        <ele>1549.089999999999918</ele>
        <time>2015-02-15T10:53:51Z</time>
      </trkpt>
      <trkpt lat="47.699094526469707" lon="12.037877691909671">
        <ele>1544.869999999999891</ele>
        <time>2015-02-15T10:53:53Z</time>
      </trkpt>
      <trkpt lat="47.699083210900426" lon="12.037923708558083">
        <ele>1545.920000000000073</ele>
        <time>2015-02-15T10:53:54Z</time>
      </trkpt>
      <trkpt lat="47.699058149009943" lon="12.037940220907331">
        <ele>1541.299999999999955</ele>
        <time>2015-02-15T10:53:55Z</time>
      </trkpt>
      <trkpt lat="47.698988998308778" lon="12.037938376888633">
        <ele>1537.1400000000001</ele>
        <time>2015-02-15T10:53:57Z</time>
      </trkpt>
      <trkpt lat="47.698973324149847" lon="12.037983722984791">
        <ele>1536.990000000000009</ele>
        <time>2015-02-15T10:53:58Z</time>
      </trkpt>
      <trkpt lat="47.698953291401267" lon="12.038019765168428">
        <ele>1532.509999999999991</ele>
        <time>2015-02-15T10:53:59Z</time>
      </trkpt>
      <trkpt lat="47.698888834565878" lon="12.038011718541384">
        <ele>1527.940000000000055</ele>
        <time>2015-02-15T10:54:01Z</time>
      </trkpt>
      <trkpt lat="47.698850026354194" lon="12.038120934739709">
        <ele>1523.900000000000091</ele>
        <time>2015-02-15T10:54:06Z</time>
      </trkpt>
      <trkpt lat="47.698792107403278" lon="12.03808925114572">
        <ele>1521.3900000000001</ele>
        <time>2015-02-15T10:54:09Z</time>
      </trkpt>
      <trkpt lat="47.698789425194263" lon="12.038097716867924">
        <ele>1522.160000000000082</ele>
        <time>2015-02-15T10:54:26Z</time>
      </trkpt>
      <trkpt lat="47.698778696358204" lon="12.038118671625853">
        <ele>1522.130000000000109</ele>
        <time>2015-02-15T10:55:11Z</time>
      </trkpt>
      <trkpt lat="47.698782552033663" lon="12.038126718252897">
        <ele>1522.5</ele>
        <time>2015-02-15T10:55:50Z</time>
      </trkpt>
      <trkpt lat="47.698721447959542" lon="12.038162676617503">
        <ele>1519.789999999999964</ele>
        <time>2015-02-15T10:55:53Z</time>
      </trkpt>
      <trkpt lat="47.698716334998608" lon="12.038244567811489">
        <ele>1515.509999999999991</ele>
        <time>2015-02-15T10:55:55Z</time>
      </trkpt>
      <trkpt lat="47.698692278936505" lon="12.038354454562068">
        <ele>1511.400000000000091</ele>
        <time>2015-02-15T10:55:59Z</time>
      </trkpt>
      <trkpt lat="47.698649950325489" lon="12.03837507404387">
        <ele>1507.700000000000045</ele>
        <time>2015-02-15T10:56:03Z</time>
      </trkpt>
      <trkpt lat="47.698625726625323" lon="12.038445230573416">
        <ele>1504.019999999999982</ele>
        <time>2015-02-15T10:56:06Z</time>
      </trkpt>
      <trkpt lat="47.698574345558882" lon="12.038430981338024">
        <ele>1500.049999999999955</ele>
        <time>2015-02-15T10:56:08Z</time>
      </trkpt>
      <trkpt lat="47.698555737733841" lon="12.038453696295619">
        <ele>1501.539999999999964</ele>
        <time>2015-02-15T10:56:09Z</time>
      </trkpt>
      <trkpt lat="47.698530172929168" lon="12.03847574070096">
        <ele>1495.420000000000073</ele>
        <time>2015-02-15T10:56:10Z</time>
      </trkpt>
      <trkpt lat="47.698483569547534" lon="12.038474483415484">
        <ele>1494.230000000000018</ele>
        <time>2015-02-15T10:56:16Z</time>
      </trkpt>
      <trkpt lat="47.698483569547534" lon="12.038476662710309">
        <ele>1494.900000000000091</ele>
        <time>2015-02-15T10:56:18Z</time>
      </trkpt>
      <trkpt lat="47.698467224836349" lon="12.038551848381758">
        <ele>1490.619999999999891</ele>
        <time>2015-02-15T10:56:21Z</time>
      </trkpt>
      <trkpt lat="47.698472086340189" lon="12.038582107052207">
        <ele>1491.279999999999973</ele>
        <time>2015-02-15T10:56:22Z</time>
      </trkpt>
      <trkpt lat="47.698412742465734" lon="12.038667434826493">
        <ele>1485.299999999999955</ele>
        <time>2015-02-15T10:56:26Z</time>
      </trkpt>
      <trkpt lat="47.698404360562563" lon="12.038772962987423">
        <ele>1480.869999999999891</ele>
        <time>2015-02-15T10:56:29Z</time>
      </trkpt>
      <trkpt lat="47.698347363620996" lon="12.038796013221145">
        <ele>1476.799999999999955</ele>
        <time>2015-02-15T10:56:31Z</time>
      </trkpt>
      <trkpt lat="47.698335628956556" lon="12.038820153102279">
        <ele>1476.200000000000045</ele>
        <time>2015-02-15T10:56:32Z</time>
      </trkpt>
      <trkpt lat="47.69829623401165" lon="12.03891696408391">
        <ele>1473.289999999999964</ele>
        <time>2015-02-15T10:56:35Z</time>
      </trkpt>
      <trkpt lat="47.69827519543469" lon="12.038930794224143">
        <ele>1468.970000000000027</ele>
        <time>2015-02-15T10:56:36Z</time>
      </trkpt>
      <trkpt lat="47.698263712227345" lon="12.038960801437497">
        <ele>1471.009999999999991</ele>
        <time>2015-02-15T10:56:37Z</time>
      </trkpt>
      <trkpt lat="47.698245188221335" lon="12.038983851671219">
        <ele>1467.180000000000064</ele>
        <time>2015-02-15T10:56:38Z</time>
      </trkpt>
      <trkpt lat="47.698199842125177" lon="12.038990305736661">
        <ele>1463.559999999999945</ele>
        <time>2015-02-15T10:56:40Z</time>
      </trkpt>
      <trkpt lat="47.69820093177259" lon="12.039027437567711">
        <ele>1462.440000000000055</ele>
        <time>2015-02-15T10:56:49Z</time>
      </trkpt>
      <trkpt lat="47.698177127167583" lon="12.039093067869544">
        <ele>1458.650000000000091</ele>
        <time>2015-02-15T10:56:53Z</time>
      </trkpt>
      <trkpt lat="47.698172852396965" lon="12.039090301841497">
        <ele>1457.799999999999955</ele>
        <time>2015-02-15T10:56:55Z</time>
      </trkpt>
      <trkpt lat="47.698134211823344" lon="12.0390694309026">
        <ele>1456.220000000000027</ele>
        <time>2015-02-15T10:56:59Z</time>
      </trkpt>
      <trkpt lat="47.698063217103481" lon="12.039074627682567">
        <ele>1452.160000000000082</ele>
        <time>2015-02-15T10:57:03Z</time>
      </trkpt>
      <trkpt lat="47.698074448853731" lon="12.039138581603765">
        <ele>1450.650000000000091</ele>
        <time>2015-02-15T10:57:05Z</time>
      </trkpt>
      <trkpt lat="47.698075706139207" lon="12.039146712049842">
        <ele>1449.589999999999918</ele>
        <time>2015-02-15T10:57:17Z</time>
      </trkpt>
      <trkpt lat="47.698071682825685" lon="12.039136905223131">
        <ele>1450.539999999999964</ele>
        <time>2015-02-15T10:57:49Z</time>
      </trkpt>
      <trkpt lat="47.698076711967587" lon="12.03913782723248">
        <ele>1450.349999999999909</ele>
        <time>2015-02-15T10:58:28Z</time>
      </trkpt>
      <trkpt lat="47.698087189346552" lon="12.039125002920628">
        <ele>1450.509999999999991</ele>
        <time>2015-02-15T10:59:05Z</time>
      </trkpt>
      <trkpt lat="47.698098924010992" lon="12.039135312661529">
        <ele>1450.349999999999909</ele>
        <time>2015-02-15T10:59:33Z</time>
      </trkpt>
      <trkpt lat="47.698099259287119" lon="12.039151405915618">
        <ele>1450.940000000000055</ele>
        <time>2015-02-15T11:00:22Z</time>
      </trkpt>
      <trkpt lat="47.698097582906485" lon="12.03915148973465">
        <ele>1451.269999999999982</ele>
        <time>2015-02-15T11:01:21Z</time>
      </trkpt>
      <trkpt lat="47.69810127094388" lon="12.039153417572379">
        <ele>1450.329999999999927</ele>
        <time>2015-02-15T11:01:49Z</time>
      </trkpt>
      <trkpt lat="47.698093894869089" lon="12.039202451705933">
        <ele>1447.8900000000001</ele>
        <time>2015-02-15T11:01:51Z</time>
      </trkpt>
      <trkpt lat="47.698073275387287" lon="12.039226843044162">
        <ele>1448.5</ele>
        <time>2015-02-15T11:01:52Z</time>
      </trkpt>
      <trkpt lat="47.697971016168594" lon="12.039267746731639">
        <ele>1441.1400000000001</ele>
        <time>2015-02-15T11:01:56Z</time>
      </trkpt>
      <trkpt lat="47.697830870747566" lon="12.039337148889899">
        <ele>1433.910000000000082</ele>
        <time>2015-02-15T11:02:01Z</time>
      </trkpt>
      <trkpt lat="47.697752248495817" lon="12.039394984021783">
        <ele>1430.519999999999982</ele>
        <time>2015-02-15T11:02:03Z</time>
      </trkpt>
      <trkpt lat="47.697714362293482" lon="12.039422560483217">
        <ele>1425.720000000000027</ele>
        <time>2015-02-15T11:02:04Z</time>
      </trkpt>
      <trkpt lat="47.697695503011346" lon="12.039469834417105">
        <ele>1428.029999999999973</ele>
        <time>2015-02-15T11:02:05Z</time>
      </trkpt>
      <trkpt lat="47.697667423635721" lon="12.039509313181043">
        <ele>1424.549999999999955</ele>
        <time>2015-02-15T11:02:06Z</time>
      </trkpt>
      <trkpt lat="47.697620820254087" lon="12.039582738652825">
        <ele>1422.329999999999927</ele>
        <time>2015-02-15T11:02:08Z</time>
      </trkpt>
      <trkpt lat="47.697580251842737" lon="12.039645351469517">
        <ele>1418.259999999999991</ele>
        <time>2015-02-15T11:02:10Z</time>
      </trkpt>
      <trkpt lat="47.697519734501839" lon="12.039768313989043">
        <ele>1412.480000000000018</ele>
        <time>2015-02-15T11:02:13Z</time>
      </trkpt>
      <trkpt lat="47.69749534316361" lon="12.039750292897224">
        <ele>1412.1400000000001</ele>
        <time>2015-02-15T11:02:22Z</time>
      </trkpt>
      <trkpt lat="47.697480507194996" lon="12.03976814635098">
        <ele>1410.960000000000036</ele>
        <time>2015-02-15T11:02:26Z</time>
      </trkpt>
      <trkpt lat="47.697461983188987" lon="12.039844337850809">
        <ele>1409.259999999999991</ele>
        <time>2015-02-15T11:02:28Z</time>
      </trkpt>
      <trkpt lat="47.697411607950926" lon="12.039867388084531">
        <ele>1407.269999999999982</ele>
        <time>2015-02-15T11:02:30Z</time>
      </trkpt>
      <trkpt lat="47.697315718978643" lon="12.039860347285867">
        <ele>1402.869999999999891</ele>
        <time>2015-02-15T11:02:34Z</time>
      </trkpt>
      <trkpt lat="47.697234833613038" lon="12.039842829108238">
        <ele>1397.269999999999982</ele>
        <time>2015-02-15T11:02:37Z</time>
      </trkpt>
      <trkpt lat="47.697142548859119" lon="12.039868477731943">
        <ele>1395.920000000000073</ele>
        <time>2015-02-15T11:02:40Z</time>
      </trkpt>
      <trkpt lat="47.697072979062796" lon="12.039841068908572">
        <ele>1391.190000000000055</ele>
        <time>2015-02-15T11:02:42Z</time>
      </trkpt>
      <trkpt lat="47.697046408429742" lon="12.039858670905232">
        <ele>1392.079999999999927</ele>
        <time>2015-02-15T11:02:43Z</time>
      </trkpt>
      <trkpt lat="47.697009276598692" lon="12.039971239864826">
        <ele>1385.990000000000009</ele>
        <time>2015-02-15T11:02:47Z</time>
      </trkpt>
      <trkpt lat="47.696983963251114" lon="12.039993032813072">
        <ele>1386.069999999999936</ele>
        <time>2015-02-15T11:02:48Z</time>
      </trkpt>
      <trkpt lat="47.696922942996025" lon="12.039991272613406">
        <ele>1382.700000000000045</ele>
        <time>2015-02-15T11:02:50Z</time>
      </trkpt>
      <trkpt lat="47.696864772588015" lon="12.040066374465823">
        <ele>1379.279999999999973</ele>
        <time>2015-02-15T11:02:53Z</time>
      </trkpt>
      <trkpt lat="47.696840381249785" lon="12.040077187120914">
        <ele>1377.980000000000018</ele>
        <time>2015-02-15T11:02:54Z</time>
      </trkpt>
      <trkpt lat="47.696789251640439" lon="12.04006134532392">
        <ele>1376.809999999999945</ele>
        <time>2015-02-15T11:02:57Z</time>
      </trkpt>
      <trkpt lat="47.696752287447453" lon="12.040082132443786">
        <ele>1372.6099999999999</ele>
        <time>2015-02-15T11:02:59Z</time>
      </trkpt>
      <trkpt lat="47.696754718199372" lon="12.040110714733601">
        <ele>1373.869999999999891</ele>
        <time>2015-02-15T11:03:00Z</time>
      </trkpt>
      <trkpt lat="47.69677609205246" lon="12.040172489359975">
        <ele>1372.059999999999945</ele>
        <time>2015-02-15T11:03:03Z</time>
      </trkpt>
      <trkpt lat="47.69674533046782" lon="12.040233761072159">
        <ele>1369.650000000000091</ele>
        <time>2015-02-15T11:03:11Z</time>
      </trkpt>
      <trkpt lat="47.696694619953632" lon="12.04018983989954">
        <ele>1368.5</ele>
        <time>2015-02-15T11:03:13Z</time>
      </trkpt>
      <trkpt lat="47.6966583263129" lon="12.040157401934266">
        <ele>1366.940000000000055</ele>
        <time>2015-02-15T11:03:15Z</time>
      </trkpt>
      <trkpt lat="47.696637203916907" lon="12.04018397256732">
        <ele>1364.960000000000036</ele>
        <time>2015-02-15T11:03:17Z</time>
      </trkpt>
      <trkpt lat="47.69660459831357" lon="12.040346581488848">
        <ele>1361.210000000000036</ele>
        <time>2015-02-15T11:03:21Z</time>
      </trkpt>
      <trkpt lat="47.696567717939615" lon="12.040352448821068">
        <ele>1358.1099999999999</ele>
        <time>2015-02-15T11:03:22Z</time>
      </trkpt>
      <trkpt lat="47.696533435955644" lon="12.0403818693012">
        <ele>1358.339999999999918</ele>
        <time>2015-02-15T11:03:23Z</time>
      </trkpt>
      <trkpt lat="47.696469649672508" lon="12.040394693613052">
        <ele>1353.6400000000001</ele>
        <time>2015-02-15T11:03:25Z</time>
      </trkpt>
      <trkpt lat="47.696438217535615" lon="12.040416151285172">
        <ele>1354.619999999999891</ele>
        <time>2015-02-15T11:03:26Z</time>
      </trkpt>
      <trkpt lat="47.696405109018087" lon="12.040421850979328">
        <ele>1350.819999999999936</ele>
        <time>2015-02-15T11:03:27Z</time>
      </trkpt>
      <trkpt lat="47.696352051571012" lon="12.04043417237699">
        <ele>1349.569999999999936</ele>
        <time>2015-02-15T11:03:29Z</time>
      </trkpt>
      <trkpt lat="47.69627133384347" lon="12.040480691939592">
        <ele>1346.509999999999991</ele>
        <time>2015-02-15T11:03:33Z</time>
      </trkpt>
      <trkpt lat="47.696259180083871" lon="12.040473902598023">
        <ele>1345.759999999999991</ele>
        <time>2015-02-15T11:03:42Z</time>
      </trkpt>
      <trkpt lat="47.696259850636125" lon="12.040459988638759">
        <ele>1344.8599999999999</ele>
        <time>2015-02-15T11:04:11Z</time>
      </trkpt>
      <trkpt lat="47.69626990891993" lon="12.040446158498526">
        <ele>1345.079999999999927</ele>
        <time>2015-02-15T11:04:44Z</time>
      </trkpt>
      <trkpt lat="47.69627770408988" lon="12.040466191247106">
        <ele>1345.230000000000018</ele>
        <time>2015-02-15T11:05:27Z</time>
      </trkpt>
      <trkpt lat="47.696278542280197" lon="12.0404630061239">
        <ele>1339.029999999999973</ele>
        <time>2015-02-15T11:05:34Z</time>
      </trkpt>
      <trkpt lat="47.696277787908912" lon="12.040462251752615">
        <ele>1342.660000000000082</ele>
        <time>2015-02-15T11:05:35Z</time>
      </trkpt>
      <trkpt lat="47.696277284994721" lon="12.040460826829076">
        <ele>1344.799999999999955</ele>
        <time>2015-02-15T11:05:37Z</time>
      </trkpt>
      <trkpt lat="47.696279296651483" lon="12.040453450754285">
        <ele>1345.190000000000055</ele>
        <time>2015-02-15T11:06:02Z</time>
      </trkpt>
      <trkpt lat="47.696273848414421" lon="12.04044297337532">
        <ele>1345.269999999999982</ele>
        <time>2015-02-15T11:06:32Z</time>
      </trkpt>
      <trkpt lat="47.696279045194387" lon="12.040458731353283">
        <ele>1349.1099999999999</ele>
        <time>2015-02-15T11:07:14Z</time>
      </trkpt>
      <trkpt lat="47.696283739060163" lon="12.040458731353283">
        <ele>1346.009999999999991</ele>
        <time>2015-02-15T11:07:15Z</time>
      </trkpt>
      <trkpt lat="47.696285415440798" lon="12.040459150448442">
        <ele>1347.279999999999973</ele>
        <time>2015-02-15T11:07:19Z</time>
      </trkpt>
      <trkpt lat="47.696292037144303" lon="12.040453031659126">
        <ele>1346.450000000000045</ele>
        <time>2015-02-15T11:07:45Z</time>
      </trkpt>
      <trkpt lat="47.696257336065173" lon="12.040409445762634">
        <ele>1346.559999999999945</ele>
        <time>2015-02-15T11:08:20Z</time>
      </trkpt>
      <trkpt lat="47.696290276944637" lon="12.040439285337925">
        <ele>1346.650000000000091</ele>
        <time>2015-02-15T11:09:06Z</time>
      </trkpt>
      <trkpt lat="47.696287594735622" lon="12.040426041930914">
        <ele>1346.880000000000109</ele>
        <time>2015-02-15T11:09:20Z</time>
      </trkpt>
      <trkpt lat="47.69621517509222" lon="12.040511956438422">
        <ele>1343.119999999999891</ele>
        <time>2015-02-15T11:09:24Z</time>
      </trkpt>
      <trkpt lat="47.696122974157333" lon="12.040685126557946">
        <ele>1340.069999999999936</ele>
        <time>2015-02-15T11:09:28Z</time>
      </trkpt>
      <trkpt lat="47.696043932810426" lon="12.040868271142244">
        <ele>1335.130000000000109</ele>
        <time>2015-02-15T11:09:32Z</time>
      </trkpt>
      <trkpt lat="47.696014931425452" lon="12.040908420458436">
        <ele>1333.230000000000018</ele>
        <time>2015-02-15T11:09:33Z</time>
      </trkpt>
      <trkpt lat="47.695876713842154" lon="12.041043704375625">
        <ele>1327.079999999999927</ele>
        <time>2015-02-15T11:09:37Z</time>
      </trkpt>
      <trkpt lat="47.69585307687521" lon="12.041095923632383">
        <ele>1327.490000000000009</ele>
        <time>2015-02-15T11:09:38Z</time>
      </trkpt>
      <trkpt lat="47.695791218429804" lon="12.041185358539224">
        <ele>1323.680000000000064</ele>
        <time>2015-02-15T11:09:40Z</time>
      </trkpt>
      <trkpt lat="47.695717290043831" lon="12.041288539767265">
        <ele>1320.1099999999999</ele>
        <time>2015-02-15T11:09:42Z</time>
      </trkpt>
      <trkpt lat="47.695630872622132" lon="12.041414771229029">
        <ele>1318.670000000000073</ele>
        <time>2015-02-15T11:09:45Z</time>
      </trkpt>
      <trkpt lat="47.695624670013785" lon="12.041518371552229">
        <ele>1317.490000000000009</ele>
        <time>2015-02-15T11:09:54Z</time>
      </trkpt>
      <trkpt lat="47.695625089108944" lon="12.041492639109492">
        <ele>1316.690000000000055</ele>
        <time>2015-02-15T11:10:26Z</time>
      </trkpt>
      <trkpt lat="47.69562098197639" lon="12.041513677686453">
        <ele>1316.549999999999955</ele>
        <time>2015-02-15T11:10:42Z</time>
      </trkpt>
      <trkpt lat="47.69558091647923" lon="12.041705539450049">
        <ele>1312.490000000000009</ele>
        <time>2015-02-15T11:10:47Z</time>
      </trkpt>
      <trkpt lat="47.695510005578399" lon="12.041741078719497">
        <ele>1310.529999999999973</ele>
        <time>2015-02-15T11:10:49Z</time>
      </trkpt>
      <trkpt lat="47.695474550127983" lon="12.041761446744204">
        <ele>1307.119999999999891</ele>
        <time>2015-02-15T11:10:50Z</time>
      </trkpt>
      <trkpt lat="47.695407411083579" lon="12.041804110631347">
        <ele>1303.299999999999955</ele>
        <time>2015-02-15T11:10:53Z</time>
      </trkpt>
      <trkpt lat="47.695406572893262" lon="12.04181207343936">
        <ele>1303.200000000000045</ele>
        <time>2015-02-15T11:10:54Z</time>
      </trkpt>
      <trkpt lat="47.695405902341008" lon="12.041878206655383">
        <ele>1301.410000000000082</ele>
        <time>2015-02-15T11:10:57Z</time>
      </trkpt>
      <trkpt lat="47.695392239838839" lon="12.041911315172911">
        <ele>1299.3900000000001</ele>
        <time>2015-02-15T11:11:00Z</time>
      </trkpt>
      <trkpt lat="47.695386959239841" lon="12.04190100543201">
        <ele>1300.170000000000073</ele>
        <time>2015-02-15T11:11:02Z</time>
      </trkpt>
      <trkpt lat="47.695348151028156" lon="12.041832944378257">
        <ele>1297.759999999999991</ele>
        <time>2015-02-15T11:11:05Z</time>
      </trkpt>
      <trkpt lat="47.695278581231833" lon="12.041810648515821">
        <ele>1293.5</ele>
        <time>2015-02-15T11:11:08Z</time>
      </trkpt>
      <trkpt lat="47.695257375016809" lon="12.041845684871078">
        <ele>1290.410000000000082</ele>
        <time>2015-02-15T11:11:09Z</time>
      </trkpt>
      <trkpt lat="47.695163413882256" lon="12.041902597993612">
        <ele>1284.630000000000109</ele>
        <time>2015-02-15T11:11:12Z</time>
      </trkpt>
      <trkpt lat="47.695127706974745" lon="12.041903687641025">
        <ele>1285.380000000000109</ele>
        <time>2015-02-15T11:11:13Z</time>
      </trkpt>
      <trkpt lat="47.695041038095951" lon="12.041884325444698">
        <ele>1281.25</ele>
        <time>2015-02-15T11:11:15Z</time>
      </trkpt>
      <trkpt lat="47.695005917921662" lon="12.041918691247702">
        <ele>1281.029999999999973</ele>
        <time>2015-02-15T11:11:16Z</time>
      </trkpt>
      <trkpt lat="47.694891085848212" lon="12.042080713436007">
        <ele>1275.519999999999982</ele>
        <time>2015-02-15T11:11:19Z</time>
      </trkpt>
      <trkpt lat="47.694765860214829" lon="12.042312389239669">
        <ele>1267.809999999999945</ele>
        <time>2015-02-15T11:11:23Z</time>
      </trkpt>
      <trkpt lat="47.694751778617501" lon="12.042323956266046">
        <ele>1268.599999999999909</ele>
        <time>2015-02-15T11:11:24Z</time>
      </trkpt>
      <trkpt lat="47.694742474704981" lon="12.042316496372223">
        <ele>1268.529999999999973</ele>
        <time>2015-02-15T11:11:39Z</time>
      </trkpt>
      <trkpt lat="47.694735936820507" lon="12.042319932952523">
        <ele>1268.599999999999909</ele>
        <time>2015-02-15T11:11:57Z</time>
      </trkpt>
      <trkpt lat="47.694686483591795" lon="12.042343486100435">
        <ele>1268.009999999999991</ele>
        <time>2015-02-15T11:11:59Z</time>
      </trkpt>
      <trkpt lat="47.694584392011166" lon="12.042549764737487">
        <ele>1263.980000000000018</ele>
        <time>2015-02-15T11:12:03Z</time>
      </trkpt>
      <trkpt lat="47.694477438926697" lon="12.042728550732136">
        <ele>1261.430000000000064</ele>
        <time>2015-02-15T11:12:07Z</time>
      </trkpt>
      <trkpt lat="47.694358332082629" lon="12.04277666285634">
        <ele>1258.549999999999955</ele>
        <time>2015-02-15T11:12:10Z</time>
      </trkpt>
      <trkpt lat="47.694316171109676" lon="12.042774315923452">
        <ele>1257.6099999999999</ele>
        <time>2015-02-15T11:12:11Z</time>
      </trkpt>
      <trkpt lat="47.694277614355087" lon="12.042777165770531">
        <ele>1256.660000000000082</ele>
        <time>2015-02-15T11:12:12Z</time>
      </trkpt>
      <trkpt lat="47.694235118106008" lon="12.042811280116439">
        <ele>1256.180000000000064</ele>
        <time>2015-02-15T11:12:20Z</time>
      </trkpt>
      <trkpt lat="47.694241655990481" lon="12.04281379468739">
        <ele>1255.920000000000073</ele>
        <time>2015-02-15T11:12:45Z</time>
      </trkpt>
      <trkpt lat="47.69420837983489" lon="12.042801892384887">
        <ele>1256.920000000000073</ele>
        <time>2015-02-15T11:13:04Z</time>
      </trkpt>
      <trkpt lat="47.694171750918031" lon="12.042786302044988">
        <ele>1254.799999999999955</ele>
        <time>2015-02-15T11:13:05Z</time>
      </trkpt>
      <trkpt lat="47.694126488640904" lon="12.042773393914104">
        <ele>1254.710000000000036</ele>
        <time>2015-02-15T11:13:06Z</time>
      </trkpt>
      <trkpt lat="47.694087512791157" lon="12.04277859069407">
        <ele>1252.539999999999964</ele>
        <time>2015-02-15T11:13:07Z</time>
      </trkpt>
      <trkpt lat="47.694071335718036" lon="12.042810106649995">
        <ele>1252.150000000000091</ele>
        <time>2015-02-15T11:13:08Z</time>
      </trkpt>
      <trkpt lat="47.694071838632226" lon="12.042856207117438">
        <ele>1251.809999999999945</ele>
        <time>2015-02-15T11:13:09Z</time>
      </trkpt>
      <trkpt lat="47.694075610488653" lon="12.042903061956167">
        <ele>1251.779999999999973</ele>
        <time>2015-02-15T11:13:10Z</time>
      </trkpt>
      <trkpt lat="47.69407887943089" lon="12.042948994785547">
        <ele>1251.289999999999964</ele>
        <time>2015-02-15T11:13:11Z</time>
      </trkpt>
      <trkpt lat="47.694077370688319" lon="12.042975062504411">
        <ele>1250.6400000000001</ele>
        <time>2015-02-15T11:13:12Z</time>
      </trkpt>
      <trkpt lat="47.694075778126717" lon="12.042980678379536">
        <ele>1250.480000000000018</ele>
        <time>2015-02-15T11:13:13Z</time>
      </trkpt>
      <trkpt lat="47.69407544285059" lon="12.042948994785547">
        <ele>1251.3599999999999</ele>
        <time>2015-02-15T11:13:45Z</time>
      </trkpt>
      <trkpt lat="47.694063456729054" lon="12.04295352101326">
        <ele>1250.450000000000045</ele>
        <time>2015-02-15T11:13:46Z</time>
      </trkpt>
      <trkpt lat="47.694043507799506" lon="12.042957628145814">
        <ele>1250.299999999999955</ele>
        <time>2015-02-15T11:13:47Z</time>
      </trkpt>
      <trkpt lat="47.694014171138406" lon="12.042959136888385">
        <ele>1250.25</ele>
        <time>2015-02-15T11:13:48Z</time>
      </trkpt>
      <trkpt lat="47.693977793678641" lon="12.042958550155163">
        <ele>1249.630000000000109</ele>
        <time>2015-02-15T11:13:49Z</time>
      </trkpt>
      <trkpt lat="47.693936135619879" lon="12.042961483821273">
        <ele>1248.650000000000091</ele>
        <time>2015-02-15T11:13:50Z</time>
      </trkpt>
      <trkpt lat="47.693895986303687" lon="12.042983695864677">
        <ele>1248.160000000000082</ele>
        <time>2015-02-15T11:13:51Z</time>
      </trkpt>
      <trkpt lat="47.693854412063956" lon="12.043005907908082">
        <ele>1246.630000000000109</ele>
        <time>2015-02-15T11:13:52Z</time>
      </trkpt>
      <trkpt lat="47.69380864687264" lon="12.043008003383875">
        <ele>1245.480000000000018</ele>
        <time>2015-02-15T11:13:53Z</time>
      </trkpt>
      <trkpt lat="47.693758271634579" lon="12.042998196557164">
        <ele>1245.150000000000091</ele>
        <time>2015-02-15T11:13:54Z</time>
      </trkpt>
      <trkpt lat="47.693708818405867" lon="12.042999537661672">
        <ele>1241.869999999999891</ele>
        <time>2015-02-15T11:13:55Z</time>
      </trkpt>
      <trkpt lat="47.693668166175485" lon="12.043022504076362">
        <ele>1241.690000000000055</ele>
        <time>2015-02-15T11:13:56Z</time>
      </trkpt>
      <trkpt lat="47.693629525601864" lon="12.043044297024608">
        <ele>1240.099999999999909</ele>
        <time>2015-02-15T11:13:57Z</time>
      </trkpt>
      <trkpt lat="47.693590046837926" lon="12.043055444955826">
        <ele>1239.089999999999918</ele>
        <time>2015-02-15T11:13:58Z</time>
      </trkpt>
      <trkpt lat="47.693559033796191" lon="12.043069275096059">
        <ele>1237.470000000000027</ele>
        <time>2015-02-15T11:13:59Z</time>
      </trkpt>
      <trkpt lat="47.693541431799531" lon="12.043102215975523">
        <ele>1237.400000000000091</ele>
        <time>2015-02-15T11:14:00Z</time>
      </trkpt>
      <trkpt lat="47.693518549203873" lon="12.043135492131114">
        <ele>1236.799999999999955</ele>
        <time>2015-02-15T11:14:01Z</time>
      </trkpt>
      <trkpt lat="47.693490637466311" lon="12.043171282857656">
        <ele>1233.839999999999918</ele>
        <time>2015-02-15T11:14:02Z</time>
      </trkpt>
      <trkpt lat="47.6934514939785" lon="12.043280666694045">
        <ele>1231.990000000000009</ele>
        <time>2015-02-15T11:14:04Z</time>
      </trkpt>
      <trkpt lat="47.693292153999209" lon="12.043479317799211">
        <ele>1228.170000000000073</ele>
        <time>2015-02-15T11:14:08Z</time>
      </trkpt>
      <trkpt lat="47.693222668021917" lon="12.043551905080676">
        <ele>1227.1400000000001</ele>
        <time>2015-02-15T11:14:10Z</time>
      </trkpt>
      <trkpt lat="47.693096101284027" lon="12.043706802651286">
        <ele>1227.799999999999955</ele>
        <time>2015-02-15T11:14:20Z</time>
      </trkpt>
      <trkpt lat="47.693025106564164" lon="12.043912746012211">
        <ele>1226.309999999999945</ele>
        <time>2015-02-15T11:14:29Z</time>
      </trkpt>
      <trkpt lat="47.693037679418921" lon="12.043944597244263">
        <ele>1226.150000000000091</ele>
        <time>2015-02-15T11:14:48Z</time>
      </trkpt>
      <trkpt lat="47.693031141534448" lon="12.043968150392175">
        <ele>1226.329999999999927</ele>
        <time>2015-02-15T11:15:23Z</time>
      </trkpt>
      <trkpt lat="47.693016305565834" lon="12.044051131233573">
        <ele>1225.789999999999964</ele>
        <time>2015-02-15T11:15:26Z</time>
      </trkpt>
      <trkpt lat="47.692921422421932" lon="12.044183146208525">
        <ele>1223.170000000000073</ele>
        <time>2015-02-15T11:15:29Z</time>
      </trkpt>
      <trkpt lat="47.692717993631959" lon="12.044324548915029">
        <ele>1218.3599999999999</ele>
        <time>2015-02-15T11:15:34Z</time>
      </trkpt>
      <trkpt lat="47.692560162395239" lon="12.044467125087976">
        <ele>1213.490000000000009</ele>
        <time>2015-02-15T11:15:39Z</time>
      </trkpt>
      <trkpt lat="47.692491346970201" lon="12.044562762603164">
        <ele>1209.920000000000073</ele>
        <time>2015-02-15T11:15:41Z</time>
      </trkpt>
      <trkpt lat="47.692451113834977" lon="12.044590758159757">
        <ele>1210.539999999999964</ele>
        <time>2015-02-15T11:15:42Z</time>
      </trkpt>
      <trkpt lat="47.692363690584898" lon="12.04469989053905">
        <ele>1207.289999999999964</ele>
        <time>2015-02-15T11:15:45Z</time>
      </trkpt>
      <trkpt lat="47.692317171022296" lon="12.044772813096642">
        <ele>1205.930000000000064</ele>
        <time>2015-02-15T11:15:47Z</time>
      </trkpt>
      <trkpt lat="47.692298227921128" lon="12.044820003211498">
        <ele>1202.670000000000073</ele>
        <time>2015-02-15T11:15:48Z</time>
      </trkpt>
      <trkpt lat="47.692270986735821" lon="12.044862080365419">
        <ele>1202.829999999999927</ele>
        <time>2015-02-15T11:15:49Z</time>
      </trkpt>
      <trkpt lat="47.692139307036996" lon="12.044969284906983">
        <ele>1198.3900000000001</ele>
        <time>2015-02-15T11:15:54Z</time>
      </trkpt>
      <trkpt lat="47.69209697842598" lon="12.045044889673591">
        <ele>1195.289999999999964</ele>
        <time>2015-02-15T11:15:57Z</time>
      </trkpt>
      <trkpt lat="47.692124973982573" lon="12.0450443867594">
        <ele>1196.1099999999999</ele>
        <time>2015-02-15T11:16:18Z</time>
      </trkpt>
      <trkpt lat="47.692120363935828" lon="12.045058300718665">
        <ele>1195.819999999999936</ele>
        <time>2015-02-15T11:16:26Z</time>
      </trkpt>
      <trkpt lat="47.692064875736833" lon="12.045094929635525">
        <ele>1195</ele>
        <time>2015-02-15T11:16:29Z</time>
      </trkpt>
      <trkpt lat="47.691947026178241" lon="12.045154692605138">
        <ele>1193.319999999999936</ele>
        <time>2015-02-15T11:16:32Z</time>
      </trkpt>
      <trkpt lat="47.691905032843351" lon="12.045179083943367">
        <ele>1192.8599999999999</ele>
        <time>2015-02-15T11:16:33Z</time>
      </trkpt>
      <trkpt lat="47.691827919334173" lon="12.045354433357716">
        <ele>1188.220000000000027</ele>
        <time>2015-02-15T11:16:37Z</time>
      </trkpt>
      <trkpt lat="47.69180285744369" lon="12.045480413362384">
        <ele>1185.039999999999964</ele>
        <time>2015-02-15T11:16:40Z</time>
      </trkpt>
      <trkpt lat="47.691841665655375" lon="12.045634388923645">
        <ele>1181.519999999999982</ele>
        <time>2015-02-15T11:16:43Z</time>
      </trkpt>
      <trkpt lat="47.691878378391266" lon="12.045717872679234">
        <ele>1178.559999999999945</ele>
        <time>2015-02-15T11:16:45Z</time>
      </trkpt>
      <trkpt lat="47.691904865205288" lon="12.045777048915625">
        <ele>1176.170000000000073</ele>
        <time>2015-02-15T11:16:47Z</time>
      </trkpt>
      <trkpt lat="47.691910564899445" lon="12.045764727517962">
        <ele>1176.990000000000009</ele>
        <time>2015-02-15T11:17:01Z</time>
      </trkpt>
      <trkpt lat="47.691895142197609" lon="12.045745030045509">
        <ele>1176.759999999999991</ele>
        <time>2015-02-15T11:17:41Z</time>
      </trkpt>
      <trkpt lat="47.691902182996273" lon="12.045755507424474">
        <ele>1175.990000000000009</ele>
        <time>2015-02-15T11:18:23Z</time>
      </trkpt>
      <trkpt lat="47.691890448331833" lon="12.045765649527311">
        <ele>1176.539999999999964</ele>
        <time>2015-02-15T11:18:32Z</time>
      </trkpt>
      <trkpt lat="47.691851891577244" lon="12.045848127454519">
        <ele>1174.710000000000036</ele>
        <time>2015-02-15T11:18:35Z</time>
      </trkpt>
      <trkpt lat="47.691806713119149" lon="12.045991709455848">
        <ele>1171.990000000000009</ele>
        <time>2015-02-15T11:18:38Z</time>
      </trkpt>
      <trkpt lat="47.691799337044358" lon="12.046089190989733">
        <ele>1168.710000000000036</ele>
        <time>2015-02-15T11:18:40Z</time>
      </trkpt>
      <trkpt lat="47.691789027303457" lon="12.046185582876205">
        <ele>1167.190000000000055</ele>
        <time>2015-02-15T11:18:42Z</time>
      </trkpt>
      <trkpt lat="47.691781483590603" lon="12.046289686113596">
        <ele>1163.420000000000073</ele>
        <time>2015-02-15T11:18:44Z</time>
      </trkpt>
      <trkpt lat="47.691788608208299" lon="12.046343581750989">
        <ele>1163.170000000000073</ele>
        <time>2015-02-15T11:18:45Z</time>
      </trkpt>
      <trkpt lat="47.691799588501453" lon="12.046466628089547">
        <ele>1158.319999999999936</ele>
        <time>2015-02-15T11:18:47Z</time>
      </trkpt>
      <trkpt lat="47.691795397549868" lon="12.046773405745625">
        <ele>1149.990000000000009</ele>
        <time>2015-02-15T11:18:52Z</time>
      </trkpt>
      <trkpt lat="47.691772347316146" lon="12.046857057139277">
        <ele>1147.019999999999982</ele>
        <time>2015-02-15T11:18:55Z</time>
      </trkpt>
      <trkpt lat="47.691792966797948" lon="12.047033747658134">
        <ele>1143.039999999999964</ele>
        <time>2015-02-15T11:18:58Z</time>
      </trkpt>
      <trkpt lat="47.691822974011302" lon="12.047080770134926">
        <ele>1143.220000000000027</ele>
        <time>2015-02-15T11:18:59Z</time>
      </trkpt>
      <trkpt lat="47.691843677312136" lon="12.047117985785007">
        <ele>1143</ele>
        <time>2015-02-15T11:19:00Z</time>
      </trkpt>
      <trkpt lat="47.691854322329164" lon="12.047156458720565">
        <ele>1142.200000000000045</ele>
        <time>2015-02-15T11:19:01Z</time>
      </trkpt>
      <trkpt lat="47.691860860213637" lon="12.047196356579661">
        <ele>1142.150000000000091</ele>
        <time>2015-02-15T11:19:02Z</time>
      </trkpt>
      <trkpt lat="47.691903440281749" lon="12.047410430386662">
        <ele>1140.349999999999909</ele>
        <time>2015-02-15T11:19:11Z</time>
      </trkpt>
      <trkpt lat="47.69189422018826" lon="12.047420237213373">
        <ele>1140.980000000000018</ele>
        <time>2015-02-15T11:19:22Z</time>
      </trkpt>
      <trkpt lat="47.691889358684421" lon="12.04746943898499">
        <ele>1139.539999999999964</ele>
        <time>2015-02-15T11:19:25Z</time>
      </trkpt>
      <trkpt lat="47.691890532150865" lon="12.047484610229731">
        <ele>1139.779999999999973</ele>
        <time>2015-02-15T11:19:46Z</time>
      </trkpt>
      <trkpt lat="47.691846024245024" lon="12.047514198347926">
        <ele>1138.519999999999982</ele>
        <time>2015-02-15T11:20:11Z</time>
      </trkpt>
      <trkpt lat="47.691816603764892" lon="12.047556610777974">
        <ele>1137.680000000000064</ele>
        <time>2015-02-15T11:20:28Z</time>
      </trkpt>
      <trkpt lat="47.691800845786929" lon="12.047622492536902">
        <ele>1137.650000000000091</ele>
        <time>2015-02-15T11:20:30Z</time>
      </trkpt>
      <trkpt lat="47.691771257668734" lon="12.047886103391647">
        <ele>1133.6099999999999</ele>
        <time>2015-02-15T11:20:34Z</time>
      </trkpt>
      <trkpt lat="47.691773772239685" lon="12.047935305163264">
        <ele>1134.039999999999964</ele>
        <time>2015-02-15T11:20:35Z</time>
      </trkpt>
      <trkpt lat="47.691739406436682" lon="12.04813395626843">
        <ele>1130.920000000000073</ele>
        <time>2015-02-15T11:20:39Z</time>
      </trkpt>
      <trkpt lat="47.691735802218318" lon="12.048264546319842">
        <ele>1130.559999999999945</ele>
        <time>2015-02-15T11:20:51Z</time>
      </trkpt>
      <trkpt lat="47.691728007048368" lon="12.048293799161911">
        <ele>1130.690000000000055</ele>
        <time>2015-02-15T11:21:02Z</time>
      </trkpt>
      <trkpt lat="47.691721636801958" lon="12.04835188575089">
        <ele>1129.940000000000055</ele>
        <time>2015-02-15T11:21:04Z</time>
      </trkpt>
      <trkpt lat="47.691686516627669" lon="12.048413995653391">
        <ele>1128.079999999999927</ele>
        <time>2015-02-15T11:21:06Z</time>
      </trkpt>
      <trkpt lat="47.691661203280091" lon="12.048426233232021">
        <ele>1124.410000000000082</ele>
        <time>2015-02-15T11:21:07Z</time>
      </trkpt>
      <trkpt lat="47.691642176359892" lon="12.048451043665409">
        <ele>1125.710000000000036</ele>
        <time>2015-02-15T11:21:08Z</time>
      </trkpt>
      <trkpt lat="47.691632034257054" lon="12.048487504944205">
        <ele>1125.349999999999909</ele>
        <time>2015-02-15T11:21:09Z</time>
      </trkpt>
      <trkpt lat="47.69157512113452" lon="12.048786487430334">
        <ele>1123.569999999999936</ele>
        <time>2015-02-15T11:21:21Z</time>
      </trkpt>
      <trkpt lat="47.691571097820997" lon="12.048846837133169">
        <ele>1122.690000000000055</ele>
        <time>2015-02-15T11:21:23Z</time>
      </trkpt>
      <trkpt lat="47.691546874120831" lon="12.048880951479077">
        <ele>1119.650000000000091</ele>
        <time>2015-02-15T11:21:33Z</time>
      </trkpt>
      <trkpt lat="47.691497672349215" lon="12.048910455778241">
        <ele>1118.349999999999909</ele>
        <time>2015-02-15T11:21:42Z</time>
      </trkpt>
      <trkpt lat="47.691495325416327" lon="12.048918753862381">
        <ele>1118.519999999999982</ele>
        <time>2015-02-15T11:21:44Z</time>
      </trkpt>
      <trkpt lat="47.69146179780364" lon="12.049001986160874">
        <ele>1116.769999999999982</ele>
        <time>2015-02-15T11:21:47Z</time>
      </trkpt>
      <trkpt lat="47.691319389268756" lon="12.049233075231314">
        <ele>1114.339999999999918</ele>
        <time>2015-02-15T11:21:57Z</time>
      </trkpt>
      <trkpt lat="47.691267505288124" lon="12.049307506531477">
        <ele>1113.509999999999991</ele>
        <time>2015-02-15T11:21:59Z</time>
      </trkpt>
      <trkpt lat="47.691212017089128" lon="12.049448909237981">
        <ele>1110.930000000000064</ele>
        <time>2015-02-15T11:22:02Z</time>
      </trkpt>
      <trkpt lat="47.691213442012668" lon="12.04953046515584">
        <ele>1110.539999999999964</ele>
        <time>2015-02-15T11:22:12Z</time>
      </trkpt>
      <trkpt lat="47.691216459497809" lon="12.049551755189896">
        <ele>1110.930000000000064</ele>
        <time>2015-02-15T11:22:19Z</time>
      </trkpt>
      <trkpt lat="47.691200785338879" lon="12.049605315551162">
        <ele>1110.099999999999909</ele>
        <time>2015-02-15T11:22:21Z</time>
      </trkpt>
      <trkpt lat="47.691139932721853" lon="12.049702880904078">
        <ele>1107.650000000000091</ele>
        <time>2015-02-15T11:22:25Z</time>
      </trkpt>
      <trkpt lat="47.691106405109167" lon="12.049724003300071">
        <ele>1106.480000000000018</ele>
        <time>2015-02-15T11:22:27Z</time>
      </trkpt>
      <trkpt lat="47.69100783392787" lon="12.050008988007903">
        <ele>1100.680000000000064</ele>
        <time>2015-02-15T11:22:33Z</time>
      </trkpt>
      <trkpt lat="47.690963242202997" lon="12.050232784822583">
        <ele>1097.099999999999909</ele>
        <time>2015-02-15T11:22:37Z</time>
      </trkpt>
      <trkpt lat="47.690901048481464" lon="12.050367817282677">
        <ele>1093.470000000000027</ele>
        <time>2015-02-15T11:22:40Z</time>
      </trkpt>
      <trkpt lat="47.690878082066774" lon="12.050385922193527">
        <ele>1093.420000000000073</ele>
        <time>2015-02-15T11:22:41Z</time>
      </trkpt>
      <trkpt lat="47.69082753919065" lon="12.050382234156132">
        <ele>1092.380000000000109</ele>
        <time>2015-02-15T11:22:49Z</time>
      </trkpt>
      <trkpt lat="47.690831981599331" lon="12.050354573875666">
        <ele>1091.910000000000082</ele>
        <time>2015-02-15T11:23:24Z</time>
      </trkpt>
      <trkpt lat="47.690826449543238" lon="12.050358764827251">
        <ele>1092.309999999999945</ele>
        <time>2015-02-15T11:23:48Z</time>
      </trkpt>
      <trkpt lat="47.690810188651085" lon="12.050426155328751">
        <ele>1091.920000000000073</ele>
        <time>2015-02-15T11:23:51Z</time>
      </trkpt>
      <trkpt lat="47.690720418468118" lon="12.050544340163469">
        <ele>1090.6099999999999</ele>
        <time>2015-02-15T11:23:54Z</time>
      </trkpt>
      <trkpt lat="47.690667444840074" lon="12.05084977671504">
        <ele>1086.5</ele>
        <time>2015-02-15T11:24:00Z</time>
      </trkpt>
      <trkpt lat="47.690654201433063" lon="12.050873581320047">
        <ele>1087.029999999999973</ele>
        <time>2015-02-15T11:24:01Z</time>
      </trkpt>
      <trkpt lat="47.690555211156607" lon="12.05100760795176">
        <ele>1083.450000000000045</ele>
        <time>2015-02-15T11:24:06Z</time>
      </trkpt>
      <trkpt lat="47.690507853403687" lon="12.051087487488985">
        <ele>1082.569999999999936</ele>
        <time>2015-02-15T11:24:08Z</time>
      </trkpt>
      <trkpt lat="47.690373826771975" lon="12.051268788054585">
        <ele>1075.630000000000109</ele>
        <time>2015-02-15T11:24:13Z</time>
      </trkpt>
      <trkpt lat="47.690353374928236" lon="12.051319750025868">
        <ele>1076.089999999999918</ele>
        <time>2015-02-15T11:24:14Z</time>
      </trkpt>
      <trkpt lat="47.690326971933246" lon="12.051358306780457">
        <ele>1072.559999999999945</ele>
        <time>2015-02-15T11:24:15Z</time>
      </trkpt>
      <trkpt lat="47.690295036882162" lon="12.051390325650573">
        <ele>1072.869999999999891</ele>
        <time>2015-02-15T11:24:16Z</time>
      </trkpt>
      <trkpt lat="47.690252540633082" lon="12.051499206572771">
        <ele>1069.849999999999909</ele>
        <time>2015-02-15T11:24:18Z</time>
      </trkpt>
      <trkpt lat="47.690141731873155" lon="12.051629293709993">
        <ele>1064.789999999999964</ele>
        <time>2015-02-15T11:24:21Z</time>
      </trkpt>
      <trkpt lat="47.690051542595029" lon="12.051754435524344">
        <ele>1063.480000000000018</ele>
        <time>2015-02-15T11:24:24Z</time>
      </trkpt>
      <trkpt lat="47.689980799332261" lon="12.051876643672585">
        <ele>1061.920000000000073</ele>
        <time>2015-02-15T11:24:27Z</time>
      </trkpt>
      <trkpt lat="47.689949786290526" lon="12.051911596208811">
        <ele>1058.779999999999973</ele>
        <time>2015-02-15T11:24:28Z</time>
      </trkpt>
      <trkpt lat="47.68992799334228" lon="12.051931712776423">
        <ele>1058.970000000000027</ele>
        <time>2015-02-15T11:24:29Z</time>
      </trkpt>
      <trkpt lat="47.689919359982014" lon="12.05192475579679">
        <ele>1059.1400000000001</ele>
        <time>2015-02-15T11:24:39Z</time>
      </trkpt>
      <trkpt lat="47.689922545105219" lon="12.051891898736358">
        <ele>1059.3900000000001</ele>
        <time>2015-02-15T11:25:27Z</time>
      </trkpt>
      <trkpt lat="47.689917432144284" lon="12.051893826574087">
        <ele>1059.099999999999909</ele>
        <time>2015-02-15T11:25:31Z</time>
      </trkpt>
      <trkpt lat="47.689853645861149" lon="12.051963899284601">
        <ele>1054.869999999999891</ele>
        <time>2015-02-15T11:25:35Z</time>
      </trkpt>
      <trkpt lat="47.689833026379347" lon="12.051986362785101">
        <ele>1054.980000000000018</ele>
        <time>2015-02-15T11:25:36Z</time>
      </trkpt>
      <trkpt lat="47.689782734960318" lon="12.052036402747035">
        <ele>1053.509999999999991</ele>
        <time>2015-02-15T11:25:38Z</time>
      </trkpt>
      <trkpt lat="47.6897300966084" lon="12.052111253142357">
        <ele>1050.009999999999991</ele>
        <time>2015-02-15T11:25:40Z</time>
      </trkpt>
      <trkpt lat="47.689696485176682" lon="12.052140086889267">
        <ele>1049.769999999999982</ele>
        <time>2015-02-15T11:25:41Z</time>
      </trkpt>
      <trkpt lat="47.689658934250474" lon="12.052159532904625">
        <ele>1047.779999999999973</ele>
        <time>2015-02-15T11:25:42Z</time>
      </trkpt>
      <trkpt lat="47.689512586221099" lon="12.052210997790098">
        <ele>1042.150000000000091</ele>
        <time>2015-02-15T11:25:46Z</time>
      </trkpt>
      <trkpt lat="47.689448799937963" lon="12.052256679162383">
        <ele>1040.569999999999936</ele>
        <time>2015-02-15T11:25:48Z</time>
      </trkpt>
      <trkpt lat="47.68941393122077" lon="12.05229070968926">
        <ele>1036.170000000000073</ele>
        <time>2015-02-15T11:25:49Z</time>
      </trkpt>
      <trkpt lat="47.689309157431126" lon="12.052275370806456">
        <ele>1034.309999999999945</ele>
        <time>2015-02-15T11:25:52Z</time>
      </trkpt>
      <trkpt lat="47.689292225986719" lon="12.052253913134336">
        <ele>1035.490000000000009</ele>
        <time>2015-02-15T11:26:00Z</time>
      </trkpt>
      <trkpt lat="47.68922533839941" lon="12.05228827893734">
        <ele>1029.759999999999991</ele>
        <time>2015-02-15T11:26:03Z</time>
      </trkpt>
      <trkpt lat="47.689191978424788" lon="12.052408559247851">
        <ele>1028.880000000000109</ele>
        <time>2015-02-15T11:26:05Z</time>
      </trkpt>
      <trkpt lat="47.689173286780715" lon="12.05254920758307">
        <ele>1027.190000000000055</ele>
        <time>2015-02-15T11:26:07Z</time>
      </trkpt>
      <trkpt lat="47.689076224341989" lon="12.052895296365023">
        <ele>1025.1099999999999</ele>
        <time>2015-02-15T11:26:13Z</time>
      </trkpt>
      <trkpt lat="47.689046300947666" lon="12.052965620532632">
        <ele>1023.879999999999995</ele>
        <time>2015-02-15T11:26:15Z</time>
      </trkpt>
      <trkpt lat="47.688990058377385" lon="12.053069723770022">
        <ele>1020.850000000000023</ele>
        <time>2015-02-15T11:26:18Z</time>
      </trkpt>
      <trkpt lat="47.688862904906273" lon="12.053306009620428">
        <ele>1013.039999999999964</ele>
        <time>2015-02-15T11:26:22Z</time>
      </trkpt>
      <trkpt lat="47.688828706741333" lon="12.053324533626437">
        <ele>1014.279999999999973</ele>
        <time>2015-02-15T11:26:28Z</time>
      </trkpt>
      <trkpt lat="47.688820408657193" lon="12.053334843367338">
        <ele>1013.440000000000055</ele>
        <time>2015-02-15T11:26:30Z</time>
      </trkpt>
      <trkpt lat="47.688785875216126" lon="12.053389493376017">
        <ele>1013.490000000000009</ele>
        <time>2015-02-15T11:26:33Z</time>
      </trkpt>
      <trkpt lat="47.688722759485245" lon="12.053486807271838">
        <ele>1012.539999999999964</ele>
        <time>2015-02-15T11:26:35Z</time>
      </trkpt>
      <trkpt lat="47.688569286838174" lon="12.053679591044784">
        <ele>1007.769999999999982</ele>
        <time>2015-02-15T11:26:39Z</time>
      </trkpt>
      <trkpt lat="47.688553780317307" lon="12.05373658798635">
        <ele>1009.490000000000009</ele>
        <time>2015-02-15T11:26:40Z</time>
      </trkpt>
      <trkpt lat="47.688519079238176" lon="12.053847815841436">
        <ele>1007.659999999999968</ele>
        <time>2015-02-15T11:26:42Z</time>
      </trkpt>
      <trkpt lat="47.688490832224488" lon="12.05388612113893">
        <ele>1007.049999999999955</ele>
        <time>2015-02-15T11:26:43Z</time>
      </trkpt>
      <trkpt lat="47.688461411744356" lon="12.053915038704872">
        <ele>1005.840000000000032</ele>
        <time>2015-02-15T11:26:44Z</time>
      </trkpt>
      <trkpt lat="47.688439032062888" lon="12.053946889936924">
        <ele>1006.240000000000009</ele>
        <time>2015-02-15T11:26:45Z</time>
      </trkpt>
      <trkpt lat="47.688425118103623" lon="12.053977567702532">
        <ele>1005.769999999999982</ele>
        <time>2015-02-15T11:26:46Z</time>
      </trkpt>
      <trkpt lat="47.688417825847864" lon="12.053998271003366">
        <ele>1005.690000000000055</ele>
        <time>2015-02-15T11:26:47Z</time>
      </trkpt>
      <trkpt lat="47.688416987657547" lon="12.054013358429074">
        <ele>1006.330000000000041</ele>
        <time>2015-02-15T11:27:03Z</time>
      </trkpt>
      <trkpt lat="47.688378682360053" lon="12.054045544937253">
        <ele>1005.919999999999959</ele>
        <time>2015-02-15T11:27:26Z</time>
      </trkpt>
      <trkpt lat="47.688371054828167" lon="12.054094495251775">
        <ele>1005.899999999999977</ele>
        <time>2015-02-15T11:27:44Z</time>
      </trkpt>
      <trkpt lat="47.688370635733008" lon="12.054172614589334">
        <ele>1005.629999999999995</ele>
        <time>2015-02-15T11:28:10Z</time>
      </trkpt>
      <trkpt lat="47.688369378447533" lon="12.054192144423723">
        <ele>1005.779999999999973</ele>
        <time>2015-02-15T11:28:11Z</time>
      </trkpt>
      <trkpt lat="47.688364516943693" lon="12.05421008169651">
        <ele>1005.5</ele>
        <time>2015-02-15T11:28:12Z</time>
      </trkpt>
      <trkpt lat="47.688209032639861" lon="12.054544184356928">
        <ele>1005.720000000000027</ele>
        <time>2015-02-15T11:28:28Z</time>
      </trkpt>
      <trkpt lat="47.688056398183107" lon="12.054710816591978">
        <ele>1005.399999999999977</ele>
        <time>2015-02-15T11:28:42Z</time>
      </trkpt>
      <trkpt lat="47.687994539737701" lon="12.054695393890142">
        <ele>1005.779999999999973</ele>
        <time>2015-02-15T11:28:52Z</time>
      </trkpt>
      <trkpt lat="47.687981380149722" lon="12.054693885147572">
        <ele>1006.389999999999986</ele>
        <time>2015-02-15T11:28:53Z</time>
      </trkpt>
      <trkpt lat="47.687966879457235" lon="12.054692544043064">
        <ele>1005.710000000000036</ele>
        <time>2015-02-15T11:28:54Z</time>
      </trkpt>
      <trkpt lat="47.687750793993473" lon="12.05469036474824">
        <ele>1007.169999999999959</ele>
        <time>2015-02-15T11:29:05Z</time>
      </trkpt>
      <trkpt lat="47.687544766813517" lon="12.054775105789304">
        <ele>1005.850000000000023</ele>
        <time>2015-02-15T11:29:18Z</time>
      </trkpt>
      <trkpt lat="47.687372015789151" lon="12.05487216822803">
        <ele>1005.92999999999995</ele>
        <time>2015-02-15T11:29:30Z</time>
      </trkpt>
      <trkpt lat="47.687166659161448" lon="12.054989347234368">
        <ele>1004.92999999999995</ele>
        <time>2015-02-15T11:29:41Z</time>
      </trkpt>
      <trkpt lat="47.687030956149101" lon="12.05510619096458">
        <ele>1006.409999999999968</ele>
        <time>2015-02-15T11:29:58Z</time>
      </trkpt>
      <trkpt lat="47.686947053298354" lon="12.055151117965579">
        <ele>1006.730000000000018</ele>
        <time>2015-02-15T11:30:09Z</time>
      </trkpt>
      <trkpt lat="47.68693464808166" lon="12.055157823488116">
        <ele>1006.850000000000023</ele>
        <time>2015-02-15T11:30:10Z</time>
      </trkpt>
      <trkpt lat="47.686921572312713" lon="12.055165534839034">
        <ele>1006.809999999999945</ele>
        <time>2015-02-15T11:30:11Z</time>
      </trkpt>
      <trkpt lat="47.686680173501372" lon="12.05525086261332">
        <ele>1004.92999999999995</ele>
        <time>2015-02-15T11:30:21Z</time>
      </trkpt>
      <trkpt lat="47.686639437451959" lon="12.055268883705139">
        <ele>1003.769999999999982</ele>
        <time>2015-02-15T11:30:22Z</time>
      </trkpt>
      <trkpt lat="47.686607083305717" lon="12.055264441296458">
        <ele>1004.039999999999964</ele>
        <time>2015-02-15T11:30:23Z</time>
      </trkpt>
      <trkpt lat="47.686582440510392" lon="12.055245079100132">
        <ele>1003.289999999999964</ele>
        <time>2015-02-15T11:30:24Z</time>
      </trkpt>
      <trkpt lat="47.686559138819575" lon="12.055228566750884">
        <ele>1003.139999999999986</ele>
        <time>2015-02-15T11:30:25Z</time>
      </trkpt>
      <trkpt lat="47.686534998938441" lon="12.05522445961833">
        <ele>1003.419999999999959</ele>
        <time>2015-02-15T11:30:26Z</time>
      </trkpt>
      <trkpt lat="47.686514547094703" lon="12.055225465446711">
        <ele>1003.200000000000045</ele>
        <time>2015-02-15T11:30:27Z</time>
      </trkpt>
      <trkpt lat="47.686496106907725" lon="12.055223872885108">
        <ele>1002.490000000000009</ele>
        <time>2015-02-15T11:30:28Z</time>
      </trkpt>
      <trkpt lat="47.686482612043619" lon="12.055221693590283">
        <ele>1001.889999999999986</ele>
        <time>2015-02-15T11:30:29Z</time>
      </trkpt>
      <trkpt lat="47.686479343101382" lon="12.055203672498465">
        <ele>1002.269999999999982</ele>
        <time>2015-02-15T11:30:46Z</time>
      </trkpt>
      <trkpt lat="47.686499040573835" lon="12.055253125727177">
        <ele>1002.059999999999945</ele>
        <time>2015-02-15T11:31:06Z</time>
      </trkpt>
      <trkpt lat="47.686506249010563" lon="12.055253125727177">
        <ele>1002.350000000000023</ele>
        <time>2015-02-15T11:31:36Z</time>
      </trkpt>
      <trkpt lat="47.686504572629929" lon="12.055267710238695">
        <ele>1002.159999999999968</ele>
        <time>2015-02-15T11:32:16Z</time>
      </trkpt>
      <trkpt lat="47.686499459668994" lon="12.055280450731516">
        <ele>1002.289999999999964</ele>
        <time>2015-02-15T11:32:51Z</time>
      </trkpt>
      <trkpt lat="47.686497699469328" lon="12.05528506077826">
        <ele>1002.580000000000041</ele>
        <time>2015-02-15T11:33:21Z</time>
      </trkpt>
      <trkpt lat="47.686501974239945" lon="12.055294448509812">
        <ele>1002.309999999999945</ele>
        <time>2015-02-15T11:33:56Z</time>
      </trkpt>
      <trkpt lat="47.686509853228927" lon="12.055357061326504">
        <ele>1002.419999999999959</ele>
        <time>2015-02-15T11:34:17Z</time>
      </trkpt>
      <trkpt lat="47.686513038352132" lon="12.055371394380927">
        <ele>1001.850000000000023</ele>
        <time>2015-02-15T11:34:18Z</time>
      </trkpt>
      <trkpt lat="47.686517480760813" lon="12.055386146530509">
        <ele>1002.059999999999945</ele>
        <time>2015-02-15T11:34:19Z</time>
      </trkpt>
      <trkpt lat="47.686522258445621" lon="12.055400731042027">
        <ele>1002.629999999999995</ele>
        <time>2015-02-15T11:34:20Z</time>
      </trkpt>
      <trkpt lat="47.686593923717737" lon="12.055668449029326">
        <ele>1002.149999999999977</ele>
        <time>2015-02-15T11:34:38Z</time>
      </trkpt>
      <trkpt lat="47.686612028628588" lon="12.055990817025304">
        <ele>1001.370000000000005</ele>
        <time>2015-02-15T11:34:57Z</time>
      </trkpt>
      <trkpt lat="47.686573471873999" lon="12.056334223598242">
        <ele>1002.289999999999964</ele>
        <time>2015-02-15T11:35:17Z</time>
      </trkpt>
      <trkpt lat="47.686555366963148" lon="12.056372109800577">
        <ele>1001.899999999999977</ele>
        <time>2015-02-15T11:35:20Z</time>
      </trkpt>
      <trkpt lat="47.686545560136437" lon="12.056383341550827">
        <ele>1001.159999999999968</ele>
        <time>2015-02-15T11:35:21Z</time>
      </trkpt>
      <trkpt lat="47.686454281210899" lon="12.056500101462007">
        <ele>1000.92999999999995</ele>
        <time>2015-02-15T11:35:33Z</time>
      </trkpt>
      <trkpt lat="47.686408516019583" lon="12.056546118110418">
        <ele>1001.149999999999977</ele>
        <time>2015-02-15T11:35:41Z</time>
      </trkpt>
      <trkpt lat="47.686391919851303" lon="12.056588865816593">
        <ele>1001.370000000000005</ele>
        <time>2015-02-15T11:35:44Z</time>
      </trkpt>
      <trkpt lat="47.68638638779521" lon="12.056604204699397">
        <ele>1000.740000000000009</ele>
        <time>2015-02-15T11:35:45Z</time>
      </trkpt>
      <trkpt lat="47.686380604282022" lon="12.056619375944138">
        <ele>1001.360000000000014</ele>
        <time>2015-02-15T11:35:46Z</time>
      </trkpt>
      <trkpt lat="47.686375323683023" lon="12.056635469198227">
        <ele>1001.309999999999945</ele>
        <time>2015-02-15T11:35:47Z</time>
      </trkpt>
      <trkpt lat="47.686369540169835" lon="12.056652568280697">
        <ele>1001.580000000000041</ele>
        <time>2015-02-15T11:35:48Z</time>
      </trkpt>
      <trkpt lat="47.686275327578187" lon="12.056808974593878">
        <ele>1000.639999999999986</ele>
        <time>2015-02-15T11:36:00Z</time>
      </trkpt>
      <trkpt lat="47.686265939846635" lon="12.056822218000889">
        <ele>1000.100000000000023</ele>
        <time>2015-02-15T11:36:01Z</time>
      </trkpt>
      <trkpt lat="47.686255294829607" lon="12.056834287941456">
        <ele>1000.100000000000023</ele>
        <time>2015-02-15T11:36:02Z</time>
      </trkpt>
      <trkpt lat="47.686031414195895" lon="12.057025143876672">
        <ele>999.529999999999973</ele>
        <time>2015-02-15T11:36:24Z</time>
      </trkpt>
      <trkpt lat="47.685831757262349" lon="12.057151794433594">
        <ele>999.490000000000009</ele>
        <time>2015-02-15T11:36:43Z</time>
      </trkpt>
      <trkpt lat="47.685761097818613" lon="12.057189345359802">
        <ele>999.210000000000036</ele>
        <time>2015-02-15T11:36:50Z</time>
      </trkpt>
      <trkpt lat="47.685751374810934" lon="12.057185070589185">
        <ele>999.720000000000027</ele>
        <time>2015-02-15T11:36:51Z</time>
      </trkpt>
      <trkpt lat="47.685729078948498" lon="12.057147184386849">
        <ele>999.059999999999945</ele>
        <time>2015-02-15T11:36:54Z</time>
      </trkpt>
      <trkpt lat="47.685672752559185" lon="12.057132180780172">
        <ele>999.639999999999986</ele>
        <time>2015-02-15T11:37:09Z</time>
      </trkpt>
      <trkpt lat="47.685662191361189" lon="12.057115500792861">
        <ele>998.539999999999964</ele>
        <time>2015-02-15T11:37:36Z</time>
      </trkpt>
      <trkpt lat="47.685651043429971" lon="12.057121200487018">
        <ele>998.730000000000018</ele>
        <time>2015-02-15T11:38:07Z</time>
      </trkpt>
      <trkpt lat="47.685638470575213" lon="12.057129498571157">
        <ele>998.809999999999945</ele>
        <time>2015-02-15T11:38:27Z</time>
      </trkpt>
    </trkseg>
  </trk>

</gpx>
